<?xml version="1.0" encoding="UTF-8" standalone="no" ?>
<gpx xmlns="http://www.topografix.com/GPX/1/1" xmlns:xsi="http://www.w3.org/2001/XMLSchema-instance" xsi:schemaLocation="http://www.topografix.com/GPX/1/1 http://www.topografix.com/GPX/1/1/gpx.xsd" version="1.1" creator="VisuGPX - https://www.visugpx.com">
  <metadata>
    <name>rando du tour d\'Ezy</name>
    <desc><![CDATA[A la découverte de la flore locale : nombreuse orchidées sauvages en mai.]]></desc>
  </metadata>
  <wpt lat="48.86912" lon="1.42485">
    <ele>63</ele>
  </wpt>
  <wpt lat="48.86387" lon="1.42339">
    <ele>43</ele>
  </wpt>
  <trk>
    <name><![CDATA[rando du tour d\'Ezy_1]]></name>
    <trkseg>
      <trkpt lat="48.86912" lon="1.42485">
        <ele>63</ele>
        <time>2011-05-24T07:27:50Z</time>
      </trkpt>
      <trkpt lat="48.86935" lon="1.42497">
        <ele>63</ele>
        <time>2011-05-24T07:28:05Z</time>
      </trkpt>
      <trkpt lat="48.86949" lon="1.42498">
        <ele>63</ele>
        <time>2011-05-24T07:28:07Z</time>
      </trkpt>
      <trkpt lat="48.86942" lon="1.42508">
        <ele>71</ele>
        <time>2011-05-24T07:28:13Z</time>
      </trkpt>
      <trkpt lat="48.8695" lon="1.42518">
        <ele>71</ele>
        <time>2011-05-24T07:28:25Z</time>
      </trkpt>
      <trkpt lat="48.86955" lon="1.4253">
        <ele>64</ele>
        <time>2011-05-24T07:28:34Z</time>
      </trkpt>
      <trkpt lat="48.86961" lon="1.42542">
        <ele>72</ele>
        <time>2011-05-24T07:28:45Z</time>
      </trkpt>
      <trkpt lat="48.86968" lon="1.42552">
        <ele>90</ele>
        <time>2011-05-24T07:29:14Z</time>
      </trkpt>
      <trkpt lat="48.86969" lon="1.42566">
        <ele>90</ele>
        <time>2011-05-24T07:29:31Z</time>
      </trkpt>
      <trkpt lat="48.86968" lon="1.42582">
        <ele>90</ele>
        <time>2011-05-24T07:29:50Z</time>
      </trkpt>
      <trkpt lat="48.86976" lon="1.42592">
        <ele>84</ele>
        <time>2011-05-24T07:30:02Z</time>
      </trkpt>
      <trkpt lat="48.86981" lon="1.42606">
        <ele>97</ele>
        <time>2011-05-24T07:30:18Z</time>
      </trkpt>
      <trkpt lat="48.86989" lon="1.42615">
        <ele>103</ele>
        <time>2011-05-24T07:30:35Z</time>
      </trkpt>
      <trkpt lat="48.86998" lon="1.42615">
        <ele>110</ele>
        <time>2011-05-24T07:30:44Z</time>
      </trkpt>
      <trkpt lat="48.87009" lon="1.42619">
        <ele>110</ele>
        <time>2011-05-24T07:31:00Z</time>
      </trkpt>
      <trkpt lat="48.87005" lon="1.42638">
        <ele>110</ele>
        <time>2011-05-24T07:31:33Z</time>
      </trkpt>
      <trkpt lat="48.86995" lon="1.42638">
        <ele>102</ele>
        <time>2011-05-24T07:31:38Z</time>
      </trkpt>
      <trkpt lat="48.86989" lon="1.42626">
        <ele>94</ele>
        <time>2011-05-24T07:31:50Z</time>
      </trkpt>
      <trkpt lat="48.86998" lon="1.42627">
        <ele>94</ele>
        <time>2011-05-24T07:31:58Z</time>
      </trkpt>
      <trkpt lat="48.87007" lon="1.42633">
        <ele>94</ele>
        <time>2011-05-24T07:32:04Z</time>
      </trkpt>
      <trkpt lat="48.87008" lon="1.42647">
        <ele>94</ele>
        <time>2011-05-24T07:32:15Z</time>
      </trkpt>
      <trkpt lat="48.87015" lon="1.42663">
        <ele>94</ele>
        <time>2011-05-24T07:32:31Z</time>
      </trkpt>
      <trkpt lat="48.87019" lon="1.42677">
        <ele>102</ele>
        <time>2011-05-24T07:32:55Z</time>
      </trkpt>
      <trkpt lat="48.87027" lon="1.42685">
        <ele>102</ele>
        <time>2011-05-24T07:33:09Z</time>
      </trkpt>
      <trkpt lat="48.87037" lon="1.42689">
        <ele>112</ele>
        <time>2011-05-24T07:33:15Z</time>
      </trkpt>
      <trkpt lat="48.87046" lon="1.42697">
        <ele>122</ele>
        <time>2011-05-24T07:33:36Z</time>
      </trkpt>
      <trkpt lat="48.87056" lon="1.42698">
        <ele>122</ele>
        <time>2011-05-24T07:33:39Z</time>
      </trkpt>
      <trkpt lat="48.87067" lon="1.42703">
        <ele>122</ele>
        <time>2011-05-24T07:33:50Z</time>
      </trkpt>
      <trkpt lat="48.87076" lon="1.4271">
        <ele>110</ele>
        <time>2011-05-24T07:34:10Z</time>
      </trkpt>
      <trkpt lat="48.87087" lon="1.42712">
        <ele>118</ele>
        <time>2011-05-24T07:34:25Z</time>
      </trkpt>
      <trkpt lat="48.87096" lon="1.42716">
        <ele>118</ele>
        <time>2011-05-24T07:34:35Z</time>
      </trkpt>
      <trkpt lat="48.87107" lon="1.42715">
        <ele>126</ele>
        <time>2011-05-24T07:34:41Z</time>
      </trkpt>
      <trkpt lat="48.87112" lon="1.42702">
        <ele>119</ele>
        <time>2011-05-24T07:36:58Z</time>
      </trkpt>
      <trkpt lat="48.87104" lon="1.4269">
        <ele>113</ele>
        <time>2011-05-24T07:37:05Z</time>
      </trkpt>
      <trkpt lat="48.87104" lon="1.42676">
        <ele>125</ele>
        <time>2011-05-24T07:37:25Z</time>
      </trkpt>
      <trkpt lat="48.87098" lon="1.42666">
        <ele>125</ele>
        <time>2011-05-24T07:37:34Z</time>
      </trkpt>
      <trkpt lat="48.87089" lon="1.42659">
        <ele>125</ele>
        <time>2011-05-24T07:37:44Z</time>
      </trkpt>
      <trkpt lat="48.87081" lon="1.42651">
        <ele>117</ele>
        <time>2011-05-24T07:37:52Z</time>
      </trkpt>
      <trkpt lat="48.87075" lon="1.4264">
        <ele>123</ele>
        <time>2011-05-24T07:38:06Z</time>
      </trkpt>
      <trkpt lat="48.87068" lon="1.42629">
        <ele>123</ele>
        <time>2011-05-24T07:38:13Z</time>
      </trkpt>
      <trkpt lat="48.87066" lon="1.42615">
        <ele>116</ele>
        <time>2011-05-24T07:38:26Z</time>
      </trkpt>
      <trkpt lat="48.87063" lon="1.426">
        <ele>116</ele>
        <time>2011-05-24T07:38:32Z</time>
      </trkpt>
      <trkpt lat="48.87053" lon="1.42591">
        <ele>116</ele>
        <time>2011-05-24T07:38:41Z</time>
      </trkpt>
      <trkpt lat="48.87049" lon="1.42576">
        <ele>110</ele>
        <time>2011-05-24T07:38:52Z</time>
      </trkpt>
      <trkpt lat="48.87044" lon="1.42564">
        <ele>110</ele>
        <time>2011-05-24T07:39:01Z</time>
      </trkpt>
      <trkpt lat="48.87048" lon="1.42551">
        <ele>123</ele>
        <time>2011-05-24T07:39:16Z</time>
      </trkpt>
      <trkpt lat="48.87045" lon="1.42538">
        <ele>123</ele>
        <time>2011-05-24T07:39:25Z</time>
      </trkpt>
      <trkpt lat="48.87046" lon="1.42522">
        <ele>123</ele>
        <time>2011-05-24T07:39:33Z</time>
      </trkpt>
      <trkpt lat="48.87043" lon="1.42508">
        <ele>123</ele>
        <time>2011-05-24T07:39:42Z</time>
      </trkpt>
      <trkpt lat="48.87048" lon="1.42495">
        <ele>123</ele>
        <time>2011-05-24T07:39:52Z</time>
      </trkpt>
      <trkpt lat="48.87042" lon="1.42485">
        <ele>123</ele>
        <time>2011-05-24T07:40:00Z</time>
      </trkpt>
      <trkpt lat="48.8704" lon="1.4247">
        <ele>116</ele>
        <time>2011-05-24T07:40:11Z</time>
      </trkpt>
      <trkpt lat="48.87041" lon="1.42455">
        <ele>116</ele>
        <time>2011-05-24T07:40:19Z</time>
      </trkpt>
      <trkpt lat="48.8704" lon="1.42441">
        <ele>125</ele>
        <time>2011-05-24T07:40:30Z</time>
      </trkpt>
      <trkpt lat="48.87034" lon="1.42429">
        <ele>125</ele>
        <time>2011-05-24T07:40:39Z</time>
      </trkpt>
      <trkpt lat="48.87025" lon="1.42421">
        <ele>125</ele>
        <time>2011-05-24T07:40:48Z</time>
      </trkpt>
      <trkpt lat="48.8702" lon="1.42408">
        <ele>117</ele>
        <time>2011-05-24T07:40:57Z</time>
      </trkpt>
      <trkpt lat="48.87018" lon="1.42393">
        <ele>117</ele>
        <time>2011-05-24T07:41:06Z</time>
      </trkpt>
      <trkpt lat="48.87016" lon="1.42379">
        <ele>131</ele>
        <time>2011-05-24T07:41:19Z</time>
      </trkpt>
      <trkpt lat="48.87013" lon="1.42365">
        <ele>121</ele>
        <time>2011-05-24T07:41:26Z</time>
      </trkpt>
      <trkpt lat="48.87009" lon="1.42352">
        <ele>121</ele>
        <time>2011-05-24T07:41:36Z</time>
      </trkpt>
      <trkpt lat="48.87002" lon="1.4234">
        <ele>121</ele>
        <time>2011-05-24T07:41:43Z</time>
      </trkpt>
      <trkpt lat="48.87003" lon="1.42326">
        <ele>121</ele>
        <time>2011-05-24T07:41:52Z</time>
      </trkpt>
      <trkpt lat="48.87004" lon="1.42311">
        <ele>121</ele>
        <time>2011-05-24T07:42:01Z</time>
      </trkpt>
      <trkpt lat="48.87005" lon="1.42297">
        <ele>128</ele>
        <time>2011-05-24T07:42:14Z</time>
      </trkpt>
      <trkpt lat="48.87" lon="1.42285">
        <ele>121</ele>
        <time>2011-05-24T07:42:25Z</time>
      </trkpt>
      <trkpt lat="48.86997" lon="1.42272">
        <ele>121</ele>
        <time>2011-05-24T07:42:32Z</time>
      </trkpt>
      <trkpt lat="48.86999" lon="1.42256">
        <ele>121</ele>
        <time>2011-05-24T07:42:54Z</time>
      </trkpt>
      <trkpt lat="48.86992" lon="1.42244">
        <ele>121</ele>
        <time>2011-05-24T07:43:04Z</time>
      </trkpt>
      <trkpt lat="48.86993" lon="1.42229">
        <ele>121</ele>
        <time>2011-05-24T07:44:50Z</time>
      </trkpt>
      <trkpt lat="48.86997" lon="1.42217">
        <ele>115</ele>
        <time>2011-05-24T07:45:02Z</time>
      </trkpt>
      <trkpt lat="48.86998" lon="1.42231">
        <ele>121</ele>
        <time>2011-05-24T07:46:05Z</time>
      </trkpt>
      <trkpt lat="48.86991" lon="1.4224">
        <ele>121</ele>
        <time>2011-05-24T07:46:27Z</time>
      </trkpt>
      <trkpt lat="48.87" lon="1.42248">
        <ele>121</ele>
        <time>2011-05-24T07:47:53Z</time>
      </trkpt>
      <trkpt lat="48.86999" lon="1.42263">
        <ele>121</ele>
        <time>2011-05-24T07:48:17Z</time>
      </trkpt>
      <trkpt lat="48.87" lon="1.42277">
        <ele>114</ele>
        <time>2011-05-24T07:48:39Z</time>
      </trkpt>
      <trkpt lat="48.86991" lon="1.42273">
        <ele>122</ele>
        <time>2011-05-24T07:48:54Z</time>
      </trkpt>
      <trkpt lat="48.86987" lon="1.4226">
        <ele>122</ele>
        <time>2011-05-24T07:49:04Z</time>
      </trkpt>
      <trkpt lat="48.86984" lon="1.42246">
        <ele>122</ele>
        <time>2011-05-24T07:49:14Z</time>
      </trkpt>
      <trkpt lat="48.8698" lon="1.42233">
        <ele>113</ele>
        <time>2011-05-24T07:49:22Z</time>
      </trkpt>
      <trkpt lat="48.86976" lon="1.4222">
        <ele>113</ele>
        <time>2011-05-24T07:49:32Z</time>
      </trkpt>
      <trkpt lat="48.86973" lon="1.42207">
        <ele>113</ele>
        <time>2011-05-24T07:49:44Z</time>
      </trkpt>
      <trkpt lat="48.86971" lon="1.42193">
        <ele>107</ele>
        <time>2011-05-24T07:50:00Z</time>
      </trkpt>
      <trkpt lat="48.86968" lon="1.42179">
        <ele>107</ele>
        <time>2011-05-24T07:50:10Z</time>
      </trkpt>
      <trkpt lat="48.86964" lon="1.42166">
        <ele>107</ele>
        <time>2011-05-24T07:50:23Z</time>
      </trkpt>
      <trkpt lat="48.86961" lon="1.42152">
        <ele>107</ele>
        <time>2011-05-24T07:50:34Z</time>
      </trkpt>
      <trkpt lat="48.86957" lon="1.42139">
        <ele>107</ele>
        <time>2011-05-24T07:50:45Z</time>
      </trkpt>
      <trkpt lat="48.86952" lon="1.42126">
        <ele>102</ele>
        <time>2011-05-24T07:51:00Z</time>
      </trkpt>
      <trkpt lat="48.86949" lon="1.42112">
        <ele>102</ele>
        <time>2011-05-24T07:51:12Z</time>
      </trkpt>
      <trkpt lat="48.8695" lon="1.42097">
        <ele>110</ele>
        <time>2011-05-24T07:53:13Z</time>
      </trkpt>
      <trkpt lat="48.86949" lon="1.42083">
        <ele>104</ele>
        <time>2011-05-24T07:53:26Z</time>
      </trkpt>
      <trkpt lat="48.86947" lon="1.4207">
        <ele>98</ele>
        <time>2011-05-24T07:53:34Z</time>
      </trkpt>
      <trkpt lat="48.86945" lon="1.42055">
        <ele>92</ele>
        <time>2011-05-24T07:53:42Z</time>
      </trkpt>
      <trkpt lat="48.86945" lon="1.42039">
        <ele>92</ele>
        <time>2011-05-24T07:53:50Z</time>
      </trkpt>
      <trkpt lat="48.86945" lon="1.42024">
        <ele>92</ele>
        <time>2011-05-24T07:53:56Z</time>
      </trkpt>
      <trkpt lat="48.86948" lon="1.42009">
        <ele>92</ele>
        <time>2011-05-24T07:54:12Z</time>
      </trkpt>
      <trkpt lat="48.86948" lon="1.41995">
        <ele>92</ele>
        <time>2011-05-24T07:54:25Z</time>
      </trkpt>
      <trkpt lat="48.86944" lon="1.41981">
        <ele>84</ele>
        <time>2011-05-24T07:54:36Z</time>
      </trkpt>
      <trkpt lat="48.86938" lon="1.41969">
        <ele>84</ele>
        <time>2011-05-24T07:54:43Z</time>
      </trkpt>
      <trkpt lat="48.86935" lon="1.41955">
        <ele>84</ele>
        <time>2011-05-24T07:54:54Z</time>
      </trkpt>
      <trkpt lat="48.86931" lon="1.41942">
        <ele>84</ele>
        <time>2011-05-24T07:55:04Z</time>
      </trkpt>
      <trkpt lat="48.86922" lon="1.41944">
        <ele>100</ele>
        <time>2011-05-24T07:55:30Z</time>
      </trkpt>
      <trkpt lat="48.86912" lon="1.41946">
        <ele>100</ele>
        <time>2011-05-24T07:55:41Z</time>
      </trkpt>
      <trkpt lat="48.86907" lon="1.41935">
        <ele>91</ele>
        <time>2011-05-24T07:55:59Z</time>
      </trkpt>
      <trkpt lat="48.86906" lon="1.41919">
        <ele>91</ele>
        <time>2011-05-24T07:56:17Z</time>
      </trkpt>
      <trkpt lat="48.86903" lon="1.41906">
        <ele>91</ele>
        <time>2011-05-24T07:56:29Z</time>
      </trkpt>
      <trkpt lat="48.86897" lon="1.41895">
        <ele>91</ele>
        <time>2011-05-24T07:56:41Z</time>
      </trkpt>
      <trkpt lat="48.86888" lon="1.41889">
        <ele>91</ele>
        <time>2011-05-24T07:56:53Z</time>
      </trkpt>
      <trkpt lat="48.86891" lon="1.41875">
        <ele>91</ele>
        <time>2011-05-24T07:57:05Z</time>
      </trkpt>
      <trkpt lat="48.8689" lon="1.4186">
        <ele>91</ele>
        <time>2011-05-24T07:57:17Z</time>
      </trkpt>
      <trkpt lat="48.86887" lon="1.41847">
        <ele>91</ele>
        <time>2011-05-24T07:57:40Z</time>
      </trkpt>
      <trkpt lat="48.86888" lon="1.41832">
        <ele>91</ele>
        <time>2011-05-24T07:57:54Z</time>
      </trkpt>
      <trkpt lat="48.86897" lon="1.41838">
        <ele>104</ele>
        <time>2011-05-24T07:58:33Z</time>
      </trkpt>
      <trkpt lat="48.869" lon="1.41824">
        <ele>89</ele>
        <time>2011-05-24T07:59:38Z</time>
      </trkpt>
      <trkpt lat="48.86892" lon="1.41816">
        <ele>95</ele>
        <time>2011-05-24T07:59:51Z</time>
      </trkpt>
      <trkpt lat="48.86889" lon="1.41803">
        <ele>95</ele>
        <time>2011-05-24T08:01:11Z</time>
      </trkpt>
      <trkpt lat="48.86889" lon="1.41788">
        <ele>95</ele>
        <time>2011-05-24T08:01:18Z</time>
      </trkpt>
      <trkpt lat="48.86891" lon="1.41775">
        <ele>95</ele>
        <time>2011-05-24T08:01:29Z</time>
      </trkpt>
      <trkpt lat="48.8689" lon="1.4176">
        <ele>95</ele>
        <time>2011-05-24T08:01:37Z</time>
      </trkpt>
      <trkpt lat="48.86888" lon="1.41746">
        <ele>95</ele>
        <time>2011-05-24T08:01:46Z</time>
      </trkpt>
      <trkpt lat="48.86885" lon="1.41733">
        <ele>95</ele>
        <time>2011-05-24T08:01:54Z</time>
      </trkpt>
      <trkpt lat="48.86884" lon="1.41717">
        <ele>95</ele>
        <time>2011-05-24T08:02:02Z</time>
      </trkpt>
      <trkpt lat="48.8688" lon="1.41704">
        <ele>87</ele>
        <time>2011-05-24T08:02:10Z</time>
      </trkpt>
      <trkpt lat="48.86878" lon="1.4169">
        <ele>87</ele>
        <time>2011-05-24T08:02:17Z</time>
      </trkpt>
      <trkpt lat="48.86877" lon="1.41675">
        <ele>87</ele>
        <time>2011-05-24T08:02:28Z</time>
      </trkpt>
      <trkpt lat="48.86876" lon="1.41661">
        <ele>80</ele>
        <time>2011-05-24T08:02:35Z</time>
      </trkpt>
      <trkpt lat="48.86874" lon="1.41647">
        <ele>80</ele>
        <time>2011-05-24T08:02:47Z</time>
      </trkpt>
      <trkpt lat="48.86873" lon="1.41631">
        <ele>80</ele>
        <time>2011-05-24T08:02:57Z</time>
      </trkpt>
      <trkpt lat="48.8687" lon="1.41618">
        <ele>80</ele>
        <time>2011-05-24T08:03:08Z</time>
      </trkpt>
      <trkpt lat="48.86867" lon="1.41603">
        <ele>80</ele>
        <time>2011-05-24T08:03:17Z</time>
      </trkpt>
      <trkpt lat="48.86864" lon="1.41589">
        <ele>80</ele>
        <time>2011-05-24T08:03:24Z</time>
      </trkpt>
      <trkpt lat="48.86864" lon="1.41572">
        <ele>80</ele>
        <time>2011-05-24T08:03:34Z</time>
      </trkpt>
      <trkpt lat="48.86865" lon="1.41557">
        <ele>80</ele>
        <time>2011-05-24T08:03:42Z</time>
      </trkpt>
      <trkpt lat="48.86873" lon="1.41549">
        <ele>86</ele>
        <time>2011-05-24T08:04:15Z</time>
      </trkpt>
      <trkpt lat="48.86864" lon="1.41549">
        <ele>86</ele>
        <time>2011-05-24T08:04:45Z</time>
      </trkpt>
      <trkpt lat="48.86873" lon="1.41548">
        <ele>86</ele>
        <time>2011-05-24T08:06:20Z</time>
      </trkpt>
      <trkpt lat="48.86881" lon="1.4154">
        <ele>80</ele>
        <time>2011-05-24T08:06:32Z</time>
      </trkpt>
      <trkpt lat="48.86876" lon="1.41527">
        <ele>80</ele>
        <time>2011-05-24T08:06:46Z</time>
      </trkpt>
      <trkpt lat="48.86869" lon="1.41515">
        <ele>80</ele>
        <time>2011-05-24T08:07:00Z</time>
      </trkpt>
      <trkpt lat="48.86861" lon="1.41508">
        <ele>73</ele>
        <time>2011-05-24T08:07:18Z</time>
      </trkpt>
      <trkpt lat="48.86867" lon="1.41496">
        <ele>73</ele>
        <time>2011-05-24T08:09:17Z</time>
      </trkpt>
      <trkpt lat="48.86861" lon="1.41509">
        <ele>84</ele>
        <time>2011-05-24T08:09:30Z</time>
      </trkpt>
      <trkpt lat="48.86871" lon="1.41502">
        <ele>76</ele>
        <time>2011-05-24T08:10:02Z</time>
      </trkpt>
      <trkpt lat="48.86879" lon="1.41495">
        <ele>76</ele>
        <time>2011-05-24T08:10:12Z</time>
      </trkpt>
      <trkpt lat="48.86877" lon="1.41479">
        <ele>69</ele>
        <time>2011-05-24T08:10:27Z</time>
      </trkpt>
      <trkpt lat="48.86877" lon="1.41465">
        <ele>69</ele>
        <time>2011-05-24T08:10:33Z</time>
      </trkpt>
      <trkpt lat="48.86887" lon="1.41456">
        <ele>69</ele>
        <time>2011-05-24T08:10:42Z</time>
      </trkpt>
      <trkpt lat="48.86896" lon="1.41445">
        <ele>69</ele>
        <time>2011-05-24T08:10:49Z</time>
      </trkpt>
      <trkpt lat="48.86905" lon="1.41441">
        <ele>69</ele>
        <time>2011-05-24T08:10:55Z</time>
      </trkpt>
      <trkpt lat="48.86915" lon="1.41442">
        <ele>77</ele>
        <time>2011-05-24T08:11:30Z</time>
      </trkpt>
      <trkpt lat="48.86923" lon="1.41434">
        <ele>77</ele>
        <time>2011-05-24T08:12:04Z</time>
      </trkpt>
      <trkpt lat="48.86927" lon="1.41422">
        <ele>77</ele>
        <time>2011-05-24T08:12:31Z</time>
      </trkpt>
      <trkpt lat="48.86923" lon="1.41408">
        <ele>77</ele>
        <time>2011-05-24T08:12:41Z</time>
      </trkpt>
      <trkpt lat="48.8692" lon="1.41395">
        <ele>77</ele>
        <time>2011-05-24T08:13:49Z</time>
      </trkpt>
      <trkpt lat="48.86913" lon="1.41385">
        <ele>85</ele>
        <time>2011-05-24T08:14:27Z</time>
      </trkpt>
      <trkpt lat="48.86908" lon="1.41372">
        <ele>85</ele>
        <time>2011-05-24T08:15:02Z</time>
      </trkpt>
      <trkpt lat="48.86901" lon="1.41361">
        <ele>85</ele>
        <time>2011-05-24T08:15:17Z</time>
      </trkpt>
      <trkpt lat="48.86896" lon="1.41347">
        <ele>85</ele>
        <time>2011-05-24T08:15:31Z</time>
      </trkpt>
      <trkpt lat="48.8689" lon="1.41336">
        <ele>91</ele>
        <time>2011-05-24T08:15:46Z</time>
      </trkpt>
      <trkpt lat="48.86889" lon="1.41322">
        <ele>97</ele>
        <time>2011-05-24T08:16:02Z</time>
      </trkpt>
      <trkpt lat="48.8689" lon="1.41307">
        <ele>91</ele>
        <time>2011-05-24T08:16:15Z</time>
      </trkpt>
      <trkpt lat="48.86885" lon="1.41295">
        <ele>91</ele>
        <time>2011-05-24T08:16:25Z</time>
      </trkpt>
      <trkpt lat="48.86878" lon="1.41285">
        <ele>101</ele>
        <time>2011-05-24T08:16:38Z</time>
      </trkpt>
      <trkpt lat="48.86875" lon="1.41272">
        <ele>101</ele>
        <time>2011-05-24T08:16:47Z</time>
      </trkpt>
      <trkpt lat="48.86872" lon="1.41258">
        <ele>90</ele>
        <time>2011-05-24T08:16:56Z</time>
      </trkpt>
      <trkpt lat="48.86868" lon="1.41246">
        <ele>90</ele>
        <time>2011-05-24T08:17:07Z</time>
      </trkpt>
      <trkpt lat="48.86865" lon="1.41232">
        <ele>90</ele>
        <time>2011-05-24T08:17:19Z</time>
      </trkpt>
      <trkpt lat="48.86861" lon="1.41218">
        <ele>90</ele>
        <time>2011-05-24T08:17:27Z</time>
      </trkpt>
      <trkpt lat="48.86855" lon="1.41207">
        <ele>90</ele>
        <time>2011-05-24T08:17:37Z</time>
      </trkpt>
      <trkpt lat="48.86852" lon="1.41193">
        <ele>90</ele>
        <time>2011-05-24T08:17:48Z</time>
      </trkpt>
      <trkpt lat="48.8685" lon="1.41179">
        <ele>90</ele>
        <time>2011-05-24T08:17:57Z</time>
      </trkpt>
      <trkpt lat="48.86849" lon="1.41165">
        <ele>90</ele>
        <time>2011-05-24T08:18:08Z</time>
      </trkpt>
      <trkpt lat="48.86843" lon="1.41151">
        <ele>82</ele>
        <time>2011-05-24T08:18:15Z</time>
      </trkpt>
      <trkpt lat="48.8684" lon="1.41137">
        <ele>82</ele>
        <time>2011-05-24T08:18:29Z</time>
      </trkpt>
      <trkpt lat="48.86837" lon="1.41123">
        <ele>91</ele>
        <time>2011-05-24T08:18:39Z</time>
      </trkpt>
      <trkpt lat="48.86835" lon="1.41107">
        <ele>91</ele>
        <time>2011-05-24T08:18:50Z</time>
      </trkpt>
      <trkpt lat="48.86833" lon="1.41094">
        <ele>91</ele>
        <time>2011-05-24T08:19:02Z</time>
      </trkpt>
      <trkpt lat="48.86829" lon="1.41078">
        <ele>91</ele>
        <time>2011-05-24T08:19:15Z</time>
      </trkpt>
      <trkpt lat="48.86827" lon="1.41062">
        <ele>91</ele>
        <time>2011-05-24T08:19:26Z</time>
      </trkpt>
      <trkpt lat="48.86825" lon="1.41049">
        <ele>91</ele>
        <time>2011-05-24T08:19:38Z</time>
      </trkpt>
      <trkpt lat="48.86821" lon="1.41036">
        <ele>91</ele>
        <time>2011-05-24T08:19:49Z</time>
      </trkpt>
      <trkpt lat="48.86817" lon="1.41023">
        <ele>91</ele>
        <time>2011-05-24T08:19:56Z</time>
      </trkpt>
      <trkpt lat="48.86815" lon="1.41009">
        <ele>82</ele>
        <time>2011-05-24T08:20:08Z</time>
      </trkpt>
      <trkpt lat="48.86811" lon="1.40995">
        <ele>88</ele>
        <time>2011-05-24T08:20:22Z</time>
      </trkpt>
      <trkpt lat="48.86807" lon="1.40982">
        <ele>88</ele>
        <time>2011-05-24T08:20:34Z</time>
      </trkpt>
      <trkpt lat="48.86803" lon="1.40969">
        <ele>88</ele>
        <time>2011-05-24T08:20:41Z</time>
      </trkpt>
      <trkpt lat="48.86799" lon="1.40956">
        <ele>82</ele>
        <time>2011-05-24T08:20:54Z</time>
      </trkpt>
      <trkpt lat="48.86798" lon="1.40941">
        <ele>82</ele>
        <time>2011-05-24T08:21:04Z</time>
      </trkpt>
      <trkpt lat="48.86792" lon="1.40925">
        <ele>82</ele>
        <time>2011-05-24T08:21:18Z</time>
      </trkpt>
      <trkpt lat="48.86788" lon="1.4091">
        <ele>82</ele>
        <time>2011-05-24T08:21:28Z</time>
      </trkpt>
      <trkpt lat="48.86782" lon="1.40897">
        <ele>82</ele>
        <time>2011-05-24T08:21:42Z</time>
      </trkpt>
      <trkpt lat="48.86779" lon="1.40884">
        <ele>90</ele>
        <time>2011-05-24T08:21:50Z</time>
      </trkpt>
      <trkpt lat="48.86773" lon="1.4087">
        <ele>90</ele>
        <time>2011-05-24T08:22:02Z</time>
      </trkpt>
      <trkpt lat="48.8677" lon="1.40857">
        <ele>90</ele>
        <time>2011-05-24T08:22:19Z</time>
      </trkpt>
      <trkpt lat="48.86768" lon="1.40842">
        <ele>97</ele>
        <time>2011-05-24T08:22:29Z</time>
      </trkpt>
      <trkpt lat="48.8676" lon="1.40834">
        <ele>97</ele>
        <time>2011-05-24T08:22:43Z</time>
      </trkpt>
      <trkpt lat="48.86768" lon="1.40843">
        <ele>118</ele>
        <time>2011-05-24T08:23:04Z</time>
      </trkpt>
      <trkpt lat="48.86772" lon="1.40831">
        <ele>118</ele>
        <time>2011-05-24T08:23:28Z</time>
      </trkpt>
      <trkpt lat="48.86764" lon="1.40823">
        <ele>118</ele>
        <time>2011-05-24T08:24:19Z</time>
      </trkpt>
      <trkpt lat="48.86762" lon="1.40809">
        <ele>111</ele>
        <time>2011-05-24T08:25:03Z</time>
      </trkpt>
      <trkpt lat="48.86767" lon="1.40821">
        <ele>111</ele>
        <time>2011-05-24T08:25:30Z</time>
      </trkpt>
      <trkpt lat="48.86759" lon="1.40813">
        <ele>106</ele>
        <time>2011-05-24T08:26:00Z</time>
      </trkpt>
      <trkpt lat="48.86753" lon="1.40801">
        <ele>106</ele>
        <time>2011-05-24T08:26:08Z</time>
      </trkpt>
      <trkpt lat="48.86745" lon="1.40793">
        <ele>106</ele>
        <time>2011-05-24T08:26:16Z</time>
      </trkpt>
      <trkpt lat="48.86739" lon="1.40783">
        <ele>106</ele>
        <time>2011-05-24T08:26:27Z</time>
      </trkpt>
      <trkpt lat="48.86734" lon="1.40769">
        <ele>106</ele>
        <time>2011-05-24T08:26:36Z</time>
      </trkpt>
      <trkpt lat="48.86734" lon="1.40753">
        <ele>101</ele>
        <time>2011-05-24T08:26:44Z</time>
      </trkpt>
      <trkpt lat="48.86734" lon="1.40738">
        <ele>101</ele>
        <time>2011-05-24T08:26:53Z</time>
      </trkpt>
      <trkpt lat="48.86735" lon="1.40724">
        <ele>101</ele>
        <time>2011-05-24T08:27:03Z</time>
      </trkpt>
      <trkpt lat="48.86734" lon="1.40709">
        <ele>101</ele>
        <time>2011-05-24T08:27:12Z</time>
      </trkpt>
      <trkpt lat="48.86728" lon="1.40696">
        <ele>96</ele>
        <time>2011-05-24T08:27:25Z</time>
      </trkpt>
      <trkpt lat="48.86725" lon="1.40683">
        <ele>96</ele>
        <time>2011-05-24T08:27:33Z</time>
      </trkpt>
      <trkpt lat="48.86719" lon="1.40673">
        <ele>96</ele>
        <time>2011-05-24T08:27:39Z</time>
      </trkpt>
      <trkpt lat="48.86713" lon="1.40662">
        <ele>106</ele>
        <time>2011-05-24T08:27:55Z</time>
      </trkpt>
      <trkpt lat="48.86707" lon="1.40652">
        <ele>106</ele>
        <time>2011-05-24T08:28:08Z</time>
      </trkpt>
      <trkpt lat="48.86696" lon="1.40649">
        <ele>99</ele>
        <time>2011-05-24T08:28:38Z</time>
      </trkpt>
      <trkpt lat="48.86694" lon="1.40636">
        <ele>99</ele>
        <time>2011-05-24T08:29:08Z</time>
      </trkpt>
      <trkpt lat="48.86689" lon="1.40623">
        <ele>99</ele>
        <time>2011-05-24T08:29:29Z</time>
      </trkpt>
      <trkpt lat="48.8668" lon="1.40617">
        <ele>99</ele>
        <time>2011-05-24T08:29:43Z</time>
      </trkpt>
      <trkpt lat="48.86673" lon="1.40609">
        <ele>99</ele>
        <time>2011-05-24T08:29:59Z</time>
      </trkpt>
      <trkpt lat="48.86675" lon="1.40594">
        <ele>92</ele>
        <time>2011-05-24T08:30:24Z</time>
      </trkpt>
      <trkpt lat="48.86669" lon="1.40584">
        <ele>92</ele>
        <time>2011-05-24T08:30:34Z</time>
      </trkpt>
      <trkpt lat="48.86661" lon="1.40572">
        <ele>92</ele>
        <time>2011-05-24T08:30:44Z</time>
      </trkpt>
      <trkpt lat="48.86656" lon="1.4056">
        <ele>92</ele>
        <time>2011-05-24T08:30:54Z</time>
      </trkpt>
      <trkpt lat="48.86649" lon="1.4055">
        <ele>92</ele>
        <time>2011-05-24T08:31:03Z</time>
      </trkpt>
      <trkpt lat="48.86643" lon="1.40541">
        <ele>92</ele>
        <time>2011-05-24T08:31:13Z</time>
      </trkpt>
      <trkpt lat="48.86636" lon="1.4053">
        <ele>92</ele>
        <time>2011-05-24T08:31:21Z</time>
      </trkpt>
      <trkpt lat="48.86631" lon="1.40517">
        <ele>92</ele>
        <time>2011-05-24T08:31:30Z</time>
      </trkpt>
      <trkpt lat="48.86626" lon="1.40505">
        <ele>92</ele>
        <time>2011-05-24T08:31:39Z</time>
      </trkpt>
      <trkpt lat="48.86621" lon="1.40491">
        <ele>92</ele>
        <time>2011-05-24T08:31:49Z</time>
      </trkpt>
      <trkpt lat="48.86617" lon="1.40478">
        <ele>77</ele>
        <time>2011-05-24T08:32:13Z</time>
      </trkpt>
      <trkpt lat="48.86611" lon="1.40488">
        <ele>87</ele>
        <time>2011-05-24T08:33:19Z</time>
      </trkpt>
      <trkpt lat="48.86613" lon="1.40474">
        <ele>77</ele>
        <time>2011-05-24T08:33:44Z</time>
      </trkpt>
      <trkpt lat="48.86617" lon="1.40488">
        <ele>88</ele>
        <time>2011-05-24T08:34:45Z</time>
      </trkpt>
      <trkpt lat="48.86622" lon="1.40501">
        <ele>88</ele>
        <time>2011-05-24T08:34:54Z</time>
      </trkpt>
      <trkpt lat="48.86629" lon="1.40511">
        <ele>88</ele>
        <time>2011-05-24T08:35:03Z</time>
      </trkpt>
      <trkpt lat="48.86634" lon="1.40524">
        <ele>88</ele>
        <time>2011-05-24T08:35:13Z</time>
      </trkpt>
      <trkpt lat="48.86638" lon="1.40537">
        <ele>88</ele>
        <time>2011-05-24T08:35:23Z</time>
      </trkpt>
      <trkpt lat="48.86638" lon="1.40551">
        <ele>88</ele>
        <time>2011-05-24T08:35:34Z</time>
      </trkpt>
      <trkpt lat="48.86643" lon="1.40565">
        <ele>88</ele>
        <time>2011-05-24T08:35:44Z</time>
      </trkpt>
      <trkpt lat="48.86647" lon="1.40577">
        <ele>88</ele>
        <time>2011-05-24T08:35:57Z</time>
      </trkpt>
      <trkpt lat="48.86651" lon="1.4059">
        <ele>96</ele>
        <time>2011-05-24T08:36:10Z</time>
      </trkpt>
      <trkpt lat="48.86652" lon="1.40605">
        <ele>89</ele>
        <time>2011-05-24T08:36:42Z</time>
      </trkpt>
      <trkpt lat="48.86654" lon="1.40621">
        <ele>89</ele>
        <time>2011-05-24T08:36:55Z</time>
      </trkpt>
      <trkpt lat="48.86656" lon="1.40635">
        <ele>89</ele>
        <time>2011-05-24T08:39:20Z</time>
      </trkpt>
      <trkpt lat="48.86659" lon="1.40649">
        <ele>89</ele>
        <time>2011-05-24T08:39:33Z</time>
      </trkpt>
      <trkpt lat="48.8666" lon="1.40664">
        <ele>89</ele>
        <time>2011-05-24T08:39:48Z</time>
      </trkpt>
      <trkpt lat="48.8666" lon="1.40679">
        <ele>89</ele>
        <time>2011-05-24T08:39:57Z</time>
      </trkpt>
      <trkpt lat="48.8666" lon="1.40693">
        <ele>89</ele>
        <time>2011-05-24T08:40:07Z</time>
      </trkpt>
      <trkpt lat="48.86663" lon="1.40708">
        <ele>82</ele>
        <time>2011-05-24T08:40:18Z</time>
      </trkpt>
      <trkpt lat="48.86662" lon="1.40722">
        <ele>82</ele>
        <time>2011-05-24T08:40:27Z</time>
      </trkpt>
      <trkpt lat="48.86666" lon="1.40737">
        <ele>82</ele>
        <time>2011-05-24T08:40:38Z</time>
      </trkpt>
      <trkpt lat="48.86669" lon="1.40751">
        <ele>82</ele>
        <time>2011-05-24T08:40:47Z</time>
      </trkpt>
      <trkpt lat="48.86665" lon="1.40763">
        <ele>82</ele>
        <time>2011-05-24T08:41:00Z</time>
      </trkpt>
      <trkpt lat="48.86656" lon="1.4076">
        <ele>82</ele>
        <time>2011-05-24T08:41:14Z</time>
      </trkpt>
      <trkpt lat="48.86653" lon="1.40746">
        <ele>77</ele>
        <time>2011-05-24T08:41:24Z</time>
      </trkpt>
      <trkpt lat="48.86647" lon="1.40757">
        <ele>70</ele>
        <time>2011-05-24T08:41:51Z</time>
      </trkpt>
      <trkpt lat="48.86644" lon="1.40771">
        <ele>70</ele>
        <time>2011-05-24T08:42:03Z</time>
      </trkpt>
      <trkpt lat="48.86639" lon="1.40784">
        <ele>70</ele>
        <time>2011-05-24T08:42:10Z</time>
      </trkpt>
      <trkpt lat="48.86637" lon="1.40798">
        <ele>70</ele>
        <time>2011-05-24T08:42:22Z</time>
      </trkpt>
      <trkpt lat="48.86631" lon="1.4081">
        <ele>64</ele>
        <time>2011-05-24T08:42:39Z</time>
      </trkpt>
      <trkpt lat="48.86625" lon="1.40798">
        <ele>64</ele>
        <time>2011-05-24T08:42:50Z</time>
      </trkpt>
      <trkpt lat="48.86623" lon="1.40783">
        <ele>64</ele>
        <time>2011-05-24T08:42:59Z</time>
      </trkpt>
      <trkpt lat="48.86619" lon="1.40771">
        <ele>57</ele>
        <time>2011-05-24T08:43:07Z</time>
      </trkpt>
      <trkpt lat="48.86613" lon="1.40758">
        <ele>57</ele>
        <time>2011-05-24T08:43:16Z</time>
      </trkpt>
      <trkpt lat="48.86604" lon="1.40753">
        <ele>57</ele>
        <time>2011-05-24T08:43:35Z</time>
      </trkpt>
      <trkpt lat="48.866" lon="1.4074">
        <ele>57</ele>
        <time>2011-05-24T08:44:14Z</time>
      </trkpt>
      <trkpt lat="48.86596" lon="1.40726">
        <ele>57</ele>
        <time>2011-05-24T08:44:40Z</time>
      </trkpt>
      <trkpt lat="48.86594" lon="1.40712">
        <ele>57</ele>
        <time>2011-05-24T08:44:48Z</time>
      </trkpt>
      <trkpt lat="48.86585" lon="1.40703">
        <ele>57</ele>
        <time>2011-05-24T08:44:56Z</time>
      </trkpt>
      <trkpt lat="48.86576" lon="1.40702">
        <ele>57</ele>
        <time>2011-05-24T08:45:04Z</time>
      </trkpt>
      <trkpt lat="48.86566" lon="1.40705">
        <ele>57</ele>
        <time>2011-05-24T08:45:12Z</time>
      </trkpt>
      <trkpt lat="48.86558" lon="1.40712">
        <ele>57</ele>
        <time>2011-05-24T08:45:19Z</time>
      </trkpt>
      <trkpt lat="48.86549" lon="1.40718">
        <ele>51</ele>
        <time>2011-05-24T08:45:28Z</time>
      </trkpt>
      <trkpt lat="48.86539" lon="1.40718">
        <ele>51</ele>
        <time>2011-05-24T08:45:37Z</time>
      </trkpt>
      <trkpt lat="48.86529" lon="1.40718">
        <ele>51</ele>
        <time>2011-05-24T08:45:46Z</time>
      </trkpt>
      <trkpt lat="48.8652" lon="1.40715">
        <ele>51</ele>
        <time>2011-05-24T08:45:55Z</time>
      </trkpt>
      <trkpt lat="48.8651" lon="1.40711">
        <ele>51</ele>
        <time>2011-05-24T08:46:04Z</time>
      </trkpt>
      <trkpt lat="48.86501" lon="1.40709">
        <ele>51</ele>
        <time>2011-05-24T08:46:12Z</time>
      </trkpt>
      <trkpt lat="48.86491" lon="1.40703">
        <ele>51</ele>
        <time>2011-05-24T08:46:21Z</time>
      </trkpt>
      <trkpt lat="48.86482" lon="1.40699">
        <ele>56</ele>
        <time>2011-05-24T08:46:29Z</time>
      </trkpt>
      <trkpt lat="48.86474" lon="1.40689">
        <ele>56</ele>
        <time>2011-05-24T08:46:38Z</time>
      </trkpt>
      <trkpt lat="48.86467" lon="1.4068">
        <ele>56</ele>
        <time>2011-05-24T08:46:48Z</time>
      </trkpt>
      <trkpt lat="48.86457" lon="1.40683">
        <ele>56</ele>
        <time>2011-05-24T08:46:59Z</time>
      </trkpt>
      <trkpt lat="48.86448" lon="1.40691">
        <ele>56</ele>
        <time>2011-05-24T08:47:06Z</time>
      </trkpt>
      <trkpt lat="48.86439" lon="1.40696">
        <ele>56</ele>
        <time>2011-05-24T08:47:16Z</time>
      </trkpt>
      <trkpt lat="48.86429" lon="1.40697">
        <ele>56</ele>
        <time>2011-05-24T08:47:41Z</time>
      </trkpt>
      <trkpt lat="48.86425" lon="1.40683">
        <ele>56</ele>
        <time>2011-05-24T08:48:40Z</time>
      </trkpt>
      <trkpt lat="48.86422" lon="1.4067">
        <ele>56</ele>
        <time>2011-05-24T08:48:50Z</time>
      </trkpt>
      <trkpt lat="48.86418" lon="1.40656">
        <ele>56</ele>
        <time>2011-05-24T08:48:58Z</time>
      </trkpt>
      <trkpt lat="48.86416" lon="1.40643">
        <ele>56</ele>
        <time>2011-05-24T08:49:07Z</time>
      </trkpt>
      <trkpt lat="48.86414" lon="1.40629">
        <ele>56</ele>
        <time>2011-05-24T08:49:15Z</time>
      </trkpt>
      <trkpt lat="48.8641" lon="1.40613">
        <ele>56</ele>
        <time>2011-05-24T08:49:23Z</time>
      </trkpt>
      <trkpt lat="48.86406" lon="1.406">
        <ele>62</ele>
        <time>2011-05-24T08:49:30Z</time>
      </trkpt>
      <trkpt lat="48.86403" lon="1.40586">
        <ele>62</ele>
        <time>2011-05-24T08:49:40Z</time>
      </trkpt>
      <trkpt lat="48.86401" lon="1.40573">
        <ele>56</ele>
        <time>2011-05-24T08:49:48Z</time>
      </trkpt>
      <trkpt lat="48.86396" lon="1.4056">
        <ele>56</ele>
        <time>2011-05-24T08:49:55Z</time>
      </trkpt>
      <trkpt lat="48.86393" lon="1.40546">
        <ele>50</ele>
        <time>2011-05-24T08:50:05Z</time>
      </trkpt>
      <trkpt lat="48.86388" lon="1.40533">
        <ele>50</ele>
        <time>2011-05-24T08:50:15Z</time>
      </trkpt>
      <trkpt lat="48.86385" lon="1.4052">
        <ele>50</ele>
        <time>2011-05-24T08:50:23Z</time>
      </trkpt>
      <trkpt lat="48.86383" lon="1.40506">
        <ele>50</ele>
        <time>2011-05-24T08:50:32Z</time>
      </trkpt>
      <trkpt lat="48.86379" lon="1.40493">
        <ele>50</ele>
        <time>2011-05-24T08:50:42Z</time>
      </trkpt>
      <trkpt lat="48.86376" lon="1.40479">
        <ele>50</ele>
        <time>2011-05-24T08:50:52Z</time>
      </trkpt>
      <trkpt lat="48.86371" lon="1.40465">
        <ele>57</ele>
        <time>2011-05-24T08:51:01Z</time>
      </trkpt>
      <trkpt lat="48.86367" lon="1.40452">
        <ele>57</ele>
        <time>2011-05-24T08:51:10Z</time>
      </trkpt>
      <trkpt lat="48.86365" lon="1.40437">
        <ele>57</ele>
        <time>2011-05-24T08:51:20Z</time>
      </trkpt>
      <trkpt lat="48.8636" lon="1.40424">
        <ele>57</ele>
        <time>2011-05-24T08:51:28Z</time>
      </trkpt>
      <trkpt lat="48.86356" lon="1.4041">
        <ele>57</ele>
        <time>2011-05-24T08:51:37Z</time>
      </trkpt>
      <trkpt lat="48.86354" lon="1.40395">
        <ele>57</ele>
        <time>2011-05-24T08:51:47Z</time>
      </trkpt>
      <trkpt lat="48.86352" lon="1.40382">
        <ele>50</ele>
        <time>2011-05-24T08:51:57Z</time>
      </trkpt>
      <trkpt lat="48.86349" lon="1.40368">
        <ele>50</ele>
        <time>2011-05-24T08:52:05Z</time>
      </trkpt>
      <trkpt lat="48.86343" lon="1.40356">
        <ele>50</ele>
        <time>2011-05-24T08:52:14Z</time>
      </trkpt>
      <trkpt lat="48.8634" lon="1.40341">
        <ele>50</ele>
        <time>2011-05-24T08:52:22Z</time>
      </trkpt>
      <trkpt lat="48.86337" lon="1.40328">
        <ele>50</ele>
        <time>2011-05-24T08:52:29Z</time>
      </trkpt>
      <trkpt lat="48.86333" lon="1.40314">
        <ele>50</ele>
        <time>2011-05-24T08:52:38Z</time>
      </trkpt>
      <trkpt lat="48.86329" lon="1.403">
        <ele>50</ele>
        <time>2011-05-24T08:52:47Z</time>
      </trkpt>
      <trkpt lat="48.86326" lon="1.40286">
        <ele>55</ele>
        <time>2011-05-24T08:52:55Z</time>
      </trkpt>
      <trkpt lat="48.86322" lon="1.40273">
        <ele>55</ele>
        <time>2011-05-24T08:53:04Z</time>
      </trkpt>
      <trkpt lat="48.86319" lon="1.40259">
        <ele>55</ele>
        <time>2011-05-24T08:53:13Z</time>
      </trkpt>
      <trkpt lat="48.86315" lon="1.40245">
        <ele>55</ele>
        <time>2011-05-24T08:53:21Z</time>
      </trkpt>
      <trkpt lat="48.86311" lon="1.40232">
        <ele>55</ele>
        <time>2011-05-24T08:53:29Z</time>
      </trkpt>
      <trkpt lat="48.86305" lon="1.40221">
        <ele>55</ele>
        <time>2011-05-24T08:53:37Z</time>
      </trkpt>
      <trkpt lat="48.86301" lon="1.40207">
        <ele>55</ele>
        <time>2011-05-24T08:53:45Z</time>
      </trkpt>
      <trkpt lat="48.86296" lon="1.40195">
        <ele>55</ele>
        <time>2011-05-24T08:53:53Z</time>
      </trkpt>
      <trkpt lat="48.86292" lon="1.40181">
        <ele>55</ele>
        <time>2011-05-24T08:54:02Z</time>
      </trkpt>
      <trkpt lat="48.86286" lon="1.40168">
        <ele>55</ele>
        <time>2011-05-24T08:54:12Z</time>
      </trkpt>
      <trkpt lat="48.86282" lon="1.40154">
        <ele>55</ele>
        <time>2011-05-24T08:54:20Z</time>
      </trkpt>
      <trkpt lat="48.86278" lon="1.40142">
        <ele>55</ele>
        <time>2011-05-24T08:54:27Z</time>
      </trkpt>
      <trkpt lat="48.86271" lon="1.40132">
        <ele>55</ele>
        <time>2011-05-24T08:54:35Z</time>
      </trkpt>
      <trkpt lat="48.86267" lon="1.40119">
        <ele>61</ele>
        <time>2011-05-24T08:54:46Z</time>
      </trkpt>
      <trkpt lat="48.86261" lon="1.40107">
        <ele>61</ele>
        <time>2011-05-24T08:55:00Z</time>
      </trkpt>
      <trkpt lat="48.86257" lon="1.40094">
        <ele>61</ele>
        <time>2011-05-24T08:55:08Z</time>
      </trkpt>
      <trkpt lat="48.86253" lon="1.40082">
        <ele>61</ele>
        <time>2011-05-24T08:55:17Z</time>
      </trkpt>
      <trkpt lat="48.86247" lon="1.4007">
        <ele>54</ele>
        <time>2011-05-24T08:55:26Z</time>
      </trkpt>
      <trkpt lat="48.86241" lon="1.40058">
        <ele>54</ele>
        <time>2011-05-24T08:55:34Z</time>
      </trkpt>
      <trkpt lat="48.86235" lon="1.40046">
        <ele>54</ele>
        <time>2011-05-24T08:55:42Z</time>
      </trkpt>
      <trkpt lat="48.8623" lon="1.40033">
        <ele>54</ele>
        <time>2011-05-24T08:55:55Z</time>
      </trkpt>
      <trkpt lat="48.86223" lon="1.40023">
        <ele>54</ele>
        <time>2011-05-24T08:56:04Z</time>
      </trkpt>
      <trkpt lat="48.86217" lon="1.40011">
        <ele>54</ele>
        <time>2011-05-24T08:56:13Z</time>
      </trkpt>
      <trkpt lat="48.8621" lon="1.39999">
        <ele>54</ele>
        <time>2011-05-24T08:56:23Z</time>
      </trkpt>
      <trkpt lat="48.86205" lon="1.39987">
        <ele>54</ele>
        <time>2011-05-24T08:56:30Z</time>
      </trkpt>
      <trkpt lat="48.862" lon="1.39975">
        <ele>54</ele>
        <time>2011-05-24T08:56:38Z</time>
      </trkpt>
      <trkpt lat="48.86193" lon="1.39963">
        <ele>54</ele>
        <time>2011-05-24T08:56:47Z</time>
      </trkpt>
      <trkpt lat="48.86186" lon="1.39953">
        <ele>54</ele>
        <time>2011-05-24T08:56:58Z</time>
      </trkpt>
      <trkpt lat="48.8618" lon="1.39942">
        <ele>54</ele>
        <time>2011-05-24T08:57:07Z</time>
      </trkpt>
      <trkpt lat="48.86173" lon="1.39932">
        <ele>54</ele>
        <time>2011-05-24T08:57:16Z</time>
      </trkpt>
      <trkpt lat="48.86166" lon="1.39922">
        <ele>54</ele>
        <time>2011-05-24T08:57:24Z</time>
      </trkpt>
      <trkpt lat="48.86158" lon="1.39913">
        <ele>54</ele>
        <time>2011-05-24T08:57:34Z</time>
      </trkpt>
      <trkpt lat="48.86151" lon="1.39903">
        <ele>54</ele>
        <time>2011-05-24T08:57:42Z</time>
      </trkpt>
      <trkpt lat="48.86145" lon="1.39892">
        <ele>49</ele>
        <time>2011-05-24T08:57:50Z</time>
      </trkpt>
      <trkpt lat="48.86139" lon="1.3988">
        <ele>49</ele>
        <time>2011-05-24T08:57:59Z</time>
      </trkpt>
      <trkpt lat="48.86132" lon="1.3987">
        <ele>49</ele>
        <time>2011-05-24T08:58:06Z</time>
      </trkpt>
      <trkpt lat="48.86125" lon="1.39861">
        <ele>49</ele>
        <time>2011-05-24T08:58:14Z</time>
      </trkpt>
      <trkpt lat="48.86119" lon="1.39852">
        <ele>49</ele>
        <time>2011-05-24T08:58:22Z</time>
      </trkpt>
      <trkpt lat="48.8611" lon="1.39843">
        <ele>49</ele>
        <time>2011-05-24T08:58:33Z</time>
      </trkpt>
      <trkpt lat="48.86104" lon="1.39832">
        <ele>49</ele>
        <time>2011-05-24T08:58:41Z</time>
      </trkpt>
      <trkpt lat="48.86095" lon="1.39823">
        <ele>49</ele>
        <time>2011-05-24T08:58:49Z</time>
      </trkpt>
      <trkpt lat="48.86088" lon="1.39814">
        <ele>57</ele>
        <time>2011-05-24T08:58:56Z</time>
      </trkpt>
      <trkpt lat="48.86079" lon="1.39805">
        <ele>57</ele>
        <time>2011-05-24T08:59:04Z</time>
      </trkpt>
      <trkpt lat="48.86072" lon="1.39796">
        <ele>57</ele>
        <time>2011-05-24T08:59:12Z</time>
      </trkpt>
      <trkpt lat="48.86066" lon="1.39786">
        <ele>57</ele>
        <time>2011-05-24T08:59:18Z</time>
      </trkpt>
      <trkpt lat="48.86058" lon="1.39777">
        <ele>57</ele>
        <time>2011-05-24T08:59:27Z</time>
      </trkpt>
      <trkpt lat="48.86049" lon="1.3977">
        <ele>57</ele>
        <time>2011-05-24T08:59:35Z</time>
      </trkpt>
      <trkpt lat="48.86042" lon="1.39762">
        <ele>57</ele>
        <time>2011-05-24T08:59:44Z</time>
      </trkpt>
      <trkpt lat="48.86032" lon="1.39754">
        <ele>57</ele>
        <time>2011-05-24T08:59:53Z</time>
      </trkpt>
      <trkpt lat="48.86024" lon="1.39746">
        <ele>57</ele>
        <time>2011-05-24T09:00:01Z</time>
      </trkpt>
      <trkpt lat="48.86017" lon="1.39737">
        <ele>57</ele>
        <time>2011-05-24T09:00:09Z</time>
      </trkpt>
      <trkpt lat="48.86009" lon="1.39729">
        <ele>57</ele>
        <time>2011-05-24T09:00:17Z</time>
      </trkpt>
      <trkpt lat="48.86001" lon="1.3972">
        <ele>57</ele>
        <time>2011-05-24T09:00:25Z</time>
      </trkpt>
      <trkpt lat="48.85992" lon="1.39715">
        <ele>57</ele>
        <time>2011-05-24T09:00:35Z</time>
      </trkpt>
      <trkpt lat="48.85985" lon="1.39706">
        <ele>57</ele>
        <time>2011-05-24T09:00:41Z</time>
      </trkpt>
      <trkpt lat="48.85976" lon="1.39697">
        <ele>57</ele>
        <time>2011-05-24T09:00:48Z</time>
      </trkpt>
      <trkpt lat="48.85969" lon="1.39688">
        <ele>57</ele>
        <time>2011-05-24T09:00:56Z</time>
      </trkpt>
      <trkpt lat="48.8596" lon="1.39678">
        <ele>57</ele>
        <time>2011-05-24T09:01:05Z</time>
      </trkpt>
      <trkpt lat="48.85952" lon="1.3967">
        <ele>57</ele>
        <time>2011-05-24T09:01:13Z</time>
      </trkpt>
      <trkpt lat="48.85944" lon="1.39662">
        <ele>57</ele>
        <time>2011-05-24T09:01:21Z</time>
      </trkpt>
      <trkpt lat="48.85937" lon="1.39654">
        <ele>57</ele>
        <time>2011-05-24T09:01:29Z</time>
      </trkpt>
      <trkpt lat="48.85929" lon="1.39646">
        <ele>57</ele>
        <time>2011-05-24T09:01:37Z</time>
      </trkpt>
      <trkpt lat="48.85922" lon="1.39637">
        <ele>57</ele>
        <time>2011-05-24T09:01:46Z</time>
      </trkpt>
      <trkpt lat="48.85913" lon="1.39631">
        <ele>57</ele>
        <time>2011-05-24T09:01:54Z</time>
      </trkpt>
      <trkpt lat="48.85906" lon="1.39622">
        <ele>57</ele>
        <time>2011-05-24T09:02:01Z</time>
      </trkpt>
      <trkpt lat="48.85897" lon="1.39615">
        <ele>57</ele>
        <time>2011-05-24T09:02:19Z</time>
      </trkpt>
      <trkpt lat="48.8589" lon="1.39606">
        <ele>57</ele>
        <time>2011-05-24T09:02:29Z</time>
      </trkpt>
      <trkpt lat="48.85883" lon="1.39597">
        <ele>57</ele>
        <time>2011-05-24T09:02:39Z</time>
      </trkpt>
      <trkpt lat="48.85873" lon="1.39601">
        <ele>57</ele>
        <time>2011-05-24T09:03:39Z</time>
      </trkpt>
      <trkpt lat="48.85866" lon="1.39611">
        <ele>57</ele>
        <time>2011-05-24T09:03:48Z</time>
      </trkpt>
      <trkpt lat="48.85859" lon="1.3962">
        <ele>51</ele>
        <time>2011-05-24T09:03:56Z</time>
      </trkpt>
      <trkpt lat="48.85852" lon="1.39631">
        <ele>51</ele>
        <time>2011-05-24T09:04:03Z</time>
      </trkpt>
      <trkpt lat="48.85845" lon="1.39641">
        <ele>51</ele>
        <time>2011-05-24T09:04:10Z</time>
      </trkpt>
      <trkpt lat="48.85838" lon="1.39649">
        <ele>51</ele>
        <time>2011-05-24T09:04:20Z</time>
      </trkpt>
      <trkpt lat="48.85829" lon="1.39658">
        <ele>51</ele>
        <time>2011-05-24T09:04:29Z</time>
      </trkpt>
      <trkpt lat="48.85821" lon="1.39666">
        <ele>51</ele>
        <time>2011-05-24T09:04:38Z</time>
      </trkpt>
      <trkpt lat="48.85816" lon="1.39679">
        <ele>57</ele>
        <time>2011-05-24T09:04:48Z</time>
      </trkpt>
      <trkpt lat="48.85816" lon="1.39693">
        <ele>57</ele>
        <time>2011-05-24T09:05:19Z</time>
      </trkpt>
      <trkpt lat="48.85824" lon="1.39702">
        <ele>57</ele>
        <time>2011-05-24T09:05:26Z</time>
      </trkpt>
      <trkpt lat="48.85832" lon="1.39712">
        <ele>57</ele>
        <time>2011-05-24T09:05:34Z</time>
      </trkpt>
      <trkpt lat="48.85829" lon="1.39726">
        <ele>57</ele>
        <time>2011-05-24T09:05:47Z</time>
      </trkpt>
      <trkpt lat="48.85823" lon="1.39737">
        <ele>49</ele>
        <time>2011-05-24T09:05:56Z</time>
      </trkpt>
      <trkpt lat="48.85815" lon="1.39743">
        <ele>55</ele>
        <time>2011-05-24T09:06:11Z</time>
      </trkpt>
      <trkpt lat="48.85807" lon="1.39751">
        <ele>55</ele>
        <time>2011-05-24T09:06:20Z</time>
      </trkpt>
      <trkpt lat="48.85799" lon="1.3976">
        <ele>55</ele>
        <time>2011-05-24T09:06:33Z</time>
      </trkpt>
      <trkpt lat="48.85791" lon="1.39768">
        <ele>55</ele>
        <time>2011-05-24T09:06:47Z</time>
      </trkpt>
      <trkpt lat="48.85791" lon="1.39783">
        <ele>55</ele>
        <time>2011-05-24T09:07:07Z</time>
      </trkpt>
      <trkpt lat="48.85795" lon="1.39797">
        <ele>55</ele>
        <time>2011-05-24T09:07:24Z</time>
      </trkpt>
      <trkpt lat="48.85799" lon="1.39812">
        <ele>55</ele>
        <time>2011-05-24T09:07:33Z</time>
      </trkpt>
      <trkpt lat="48.85804" lon="1.39825">
        <ele>61</ele>
        <time>2011-05-24T09:07:42Z</time>
      </trkpt>
      <trkpt lat="48.85807" lon="1.39838">
        <ele>61</ele>
        <time>2011-05-24T09:07:53Z</time>
      </trkpt>
      <trkpt lat="48.85809" lon="1.39852">
        <ele>61</ele>
        <time>2011-05-24T09:08:02Z</time>
      </trkpt>
      <trkpt lat="48.85815" lon="1.39865">
        <ele>61</ele>
        <time>2011-05-24T09:08:10Z</time>
      </trkpt>
      <trkpt lat="48.8582" lon="1.39877">
        <ele>61</ele>
        <time>2011-05-24T09:08:20Z</time>
      </trkpt>
      <trkpt lat="48.85822" lon="1.3989">
        <ele>61</ele>
        <time>2011-05-24T09:08:28Z</time>
      </trkpt>
      <trkpt lat="48.85827" lon="1.39904">
        <ele>61</ele>
        <time>2011-05-24T09:08:35Z</time>
      </trkpt>
      <trkpt lat="48.85831" lon="1.39916">
        <ele>61</ele>
        <time>2011-05-24T09:08:44Z</time>
      </trkpt>
      <trkpt lat="48.85833" lon="1.3993">
        <ele>61</ele>
        <time>2011-05-24T09:08:52Z</time>
      </trkpt>
      <trkpt lat="48.85841" lon="1.39941">
        <ele>61</ele>
        <time>2011-05-24T09:09:00Z</time>
      </trkpt>
      <trkpt lat="48.85847" lon="1.39951">
        <ele>61</ele>
        <time>2011-05-24T09:09:08Z</time>
      </trkpt>
      <trkpt lat="48.85851" lon="1.39965">
        <ele>61</ele>
        <time>2011-05-24T09:09:16Z</time>
      </trkpt>
      <trkpt lat="48.85855" lon="1.39979">
        <ele>61</ele>
        <time>2011-05-24T09:09:25Z</time>
      </trkpt>
      <trkpt lat="48.85861" lon="1.39993">
        <ele>61</ele>
        <time>2011-05-24T09:09:33Z</time>
      </trkpt>
      <trkpt lat="48.8586" lon="1.40007">
        <ele>56</ele>
        <time>2011-05-24T09:09:45Z</time>
      </trkpt>
      <trkpt lat="48.85868" lon="1.4002">
        <ele>56</ele>
        <time>2011-05-24T09:09:55Z</time>
      </trkpt>
      <trkpt lat="48.85872" lon="1.40034">
        <ele>56</ele>
        <time>2011-05-24T09:10:08Z</time>
      </trkpt>
      <trkpt lat="48.85877" lon="1.40047">
        <ele>56</ele>
        <time>2011-05-24T09:10:16Z</time>
      </trkpt>
      <trkpt lat="48.85881" lon="1.4006">
        <ele>56</ele>
        <time>2011-05-24T09:10:27Z</time>
      </trkpt>
      <trkpt lat="48.85889" lon="1.40069">
        <ele>56</ele>
        <time>2011-05-24T09:10:36Z</time>
      </trkpt>
      <trkpt lat="48.85897" lon="1.40075">
        <ele>56</ele>
        <time>2011-05-24T09:10:45Z</time>
      </trkpt>
      <trkpt lat="48.85904" lon="1.40086">
        <ele>56</ele>
        <time>2011-05-24T09:10:55Z</time>
      </trkpt>
      <trkpt lat="48.85911" lon="1.40097">
        <ele>56</ele>
        <time>2011-05-24T09:11:06Z</time>
      </trkpt>
      <trkpt lat="48.85919" lon="1.40103">
        <ele>56</ele>
        <time>2011-05-24T09:11:14Z</time>
      </trkpt>
      <trkpt lat="48.85929" lon="1.40109">
        <ele>56</ele>
        <time>2011-05-24T09:11:23Z</time>
      </trkpt>
      <trkpt lat="48.85937" lon="1.40117">
        <ele>56</ele>
        <time>2011-05-24T09:11:34Z</time>
      </trkpt>
      <trkpt lat="48.85945" lon="1.40124">
        <ele>56</ele>
        <time>2011-05-24T09:11:42Z</time>
      </trkpt>
      <trkpt lat="48.85954" lon="1.40129">
        <ele>56</ele>
        <time>2011-05-24T09:11:52Z</time>
      </trkpt>
      <trkpt lat="48.85964" lon="1.40132">
        <ele>56</ele>
        <time>2011-05-24T09:12:00Z</time>
      </trkpt>
      <trkpt lat="48.85974" lon="1.40135">
        <ele>56</ele>
        <time>2011-05-24T09:12:10Z</time>
      </trkpt>
      <trkpt lat="48.85983" lon="1.40142">
        <ele>56</ele>
        <time>2011-05-24T09:12:19Z</time>
      </trkpt>
      <trkpt lat="48.85991" lon="1.40152">
        <ele>56</ele>
        <time>2011-05-24T09:12:27Z</time>
      </trkpt>
      <trkpt lat="48.85997" lon="1.40161">
        <ele>56</ele>
        <time>2011-05-24T09:12:35Z</time>
      </trkpt>
      <trkpt lat="48.86005" lon="1.40168">
        <ele>56</ele>
        <time>2011-05-24T09:12:44Z</time>
      </trkpt>
      <trkpt lat="48.86007" lon="1.40182">
        <ele>56</ele>
        <time>2011-05-24T09:12:54Z</time>
      </trkpt>
      <trkpt lat="48.86015" lon="1.40192">
        <ele>56</ele>
        <time>2011-05-24T09:13:02Z</time>
      </trkpt>
      <trkpt lat="48.8602" lon="1.40205">
        <ele>56</ele>
        <time>2011-05-24T09:13:11Z</time>
      </trkpt>
      <trkpt lat="48.86021" lon="1.40219">
        <ele>56</ele>
        <time>2011-05-24T09:13:20Z</time>
      </trkpt>
      <trkpt lat="48.86026" lon="1.40232">
        <ele>56</ele>
        <time>2011-05-24T09:13:28Z</time>
      </trkpt>
      <trkpt lat="48.86031" lon="1.40244">
        <ele>56</ele>
        <time>2011-05-24T09:13:36Z</time>
      </trkpt>
      <trkpt lat="48.86034" lon="1.40258">
        <ele>56</ele>
        <time>2011-05-24T09:13:47Z</time>
      </trkpt>
      <trkpt lat="48.86039" lon="1.40269">
        <ele>56</ele>
        <time>2011-05-24T09:13:55Z</time>
      </trkpt>
      <trkpt lat="48.86047" lon="1.40281">
        <ele>56</ele>
        <time>2011-05-24T09:14:03Z</time>
      </trkpt>
      <trkpt lat="48.86055" lon="1.40292">
        <ele>56</ele>
        <time>2011-05-24T09:14:11Z</time>
      </trkpt>
      <trkpt lat="48.86063" lon="1.403">
        <ele>56</ele>
        <time>2011-05-24T09:14:18Z</time>
      </trkpt>
      <trkpt lat="48.86073" lon="1.40298">
        <ele>56</ele>
        <time>2011-05-24T09:16:37Z</time>
      </trkpt>
      <trkpt lat="48.86081" lon="1.40306">
        <ele>56</ele>
        <time>2011-05-24T09:16:52Z</time>
      </trkpt>
      <trkpt lat="48.86087" lon="1.40317">
        <ele>62</ele>
        <time>2011-05-24T09:17:05Z</time>
      </trkpt>
      <trkpt lat="48.86091" lon="1.4033">
        <ele>62</ele>
        <time>2011-05-24T09:17:17Z</time>
      </trkpt>
      <trkpt lat="48.86097" lon="1.40341">
        <ele>55</ele>
        <time>2011-05-24T09:17:29Z</time>
      </trkpt>
      <trkpt lat="48.86101" lon="1.40354">
        <ele>55</ele>
        <time>2011-05-24T09:17:42Z</time>
      </trkpt>
      <trkpt lat="48.861" lon="1.40368">
        <ele>55</ele>
        <time>2011-05-24T09:19:10Z</time>
      </trkpt>
      <trkpt lat="48.86107" lon="1.40379">
        <ele>61</ele>
        <time>2011-05-24T09:19:19Z</time>
      </trkpt>
      <trkpt lat="48.86108" lon="1.40393">
        <ele>61</ele>
        <time>2011-05-24T09:19:30Z</time>
      </trkpt>
      <trkpt lat="48.86107" lon="1.40408">
        <ele>61</ele>
        <time>2011-05-24T09:19:41Z</time>
      </trkpt>
      <trkpt lat="48.8611" lon="1.40421">
        <ele>61</ele>
        <time>2011-05-24T09:20:00Z</time>
      </trkpt>
      <trkpt lat="48.86114" lon="1.40435">
        <ele>61</ele>
        <time>2011-05-24T09:20:14Z</time>
      </trkpt>
      <trkpt lat="48.8612" lon="1.40444">
        <ele>61</ele>
        <time>2011-05-24T09:20:22Z</time>
      </trkpt>
      <trkpt lat="48.86122" lon="1.4046">
        <ele>61</ele>
        <time>2011-05-24T09:20:40Z</time>
      </trkpt>
      <trkpt lat="48.86127" lon="1.40472">
        <ele>61</ele>
        <time>2011-05-24T09:20:51Z</time>
      </trkpt>
      <trkpt lat="48.86128" lon="1.40488">
        <ele>61</ele>
        <time>2011-05-24T09:21:02Z</time>
      </trkpt>
      <trkpt lat="48.86132" lon="1.40502">
        <ele>61</ele>
        <time>2011-05-24T09:21:15Z</time>
      </trkpt>
      <trkpt lat="48.86132" lon="1.40516">
        <ele>61</ele>
        <time>2011-05-24T09:21:25Z</time>
      </trkpt>
      <trkpt lat="48.86137" lon="1.4053">
        <ele>54</ele>
        <time>2011-05-24T09:21:32Z</time>
      </trkpt>
      <trkpt lat="48.86141" lon="1.40543">
        <ele>54</ele>
        <time>2011-05-24T09:21:39Z</time>
      </trkpt>
      <trkpt lat="48.86143" lon="1.40558">
        <ele>54</ele>
        <time>2011-05-24T09:21:53Z</time>
      </trkpt>
      <trkpt lat="48.86143" lon="1.40573">
        <ele>54</ele>
        <time>2011-05-24T09:22:03Z</time>
      </trkpt>
      <trkpt lat="48.86145" lon="1.40587">
        <ele>60</ele>
        <time>2011-05-24T09:22:16Z</time>
      </trkpt>
      <trkpt lat="48.86146" lon="1.40602">
        <ele>60</ele>
        <time>2011-05-24T09:22:28Z</time>
      </trkpt>
      <trkpt lat="48.86148" lon="1.40616">
        <ele>60</ele>
        <time>2011-05-24T09:22:41Z</time>
      </trkpt>
      <trkpt lat="48.86148" lon="1.40631">
        <ele>60</ele>
        <time>2011-05-24T09:22:54Z</time>
      </trkpt>
      <trkpt lat="48.86149" lon="1.40646">
        <ele>54</ele>
        <time>2011-05-24T09:23:06Z</time>
      </trkpt>
      <trkpt lat="48.86149" lon="1.40661">
        <ele>54</ele>
        <time>2011-05-24T09:23:19Z</time>
      </trkpt>
      <trkpt lat="48.86152" lon="1.40678">
        <ele>54</ele>
        <time>2011-05-24T09:23:31Z</time>
      </trkpt>
      <trkpt lat="48.86152" lon="1.40693">
        <ele>54</ele>
        <time>2011-05-24T09:23:39Z</time>
      </trkpt>
      <trkpt lat="48.86158" lon="1.40705">
        <ele>60</ele>
        <time>2011-05-24T09:23:46Z</time>
      </trkpt>
      <trkpt lat="48.86158" lon="1.40721">
        <ele>60</ele>
        <time>2011-05-24T09:23:57Z</time>
      </trkpt>
      <trkpt lat="48.86154" lon="1.40734">
        <ele>60</ele>
        <time>2011-05-24T09:24:10Z</time>
      </trkpt>
      <trkpt lat="48.86152" lon="1.40749">
        <ele>60</ele>
        <time>2011-05-24T09:24:23Z</time>
      </trkpt>
      <trkpt lat="48.86147" lon="1.40762">
        <ele>48</ele>
        <time>2011-05-24T09:24:32Z</time>
      </trkpt>
      <trkpt lat="48.86144" lon="1.40776">
        <ele>48</ele>
        <time>2011-05-24T09:24:43Z</time>
      </trkpt>
      <trkpt lat="48.86142" lon="1.4079">
        <ele>48</ele>
        <time>2011-05-24T09:24:54Z</time>
      </trkpt>
      <trkpt lat="48.86143" lon="1.40806">
        <ele>48</ele>
        <time>2011-05-24T09:25:04Z</time>
      </trkpt>
      <trkpt lat="48.86145" lon="1.40821">
        <ele>48</ele>
        <time>2011-05-24T09:25:14Z</time>
      </trkpt>
      <trkpt lat="48.8615" lon="1.40834">
        <ele>59</ele>
        <time>2011-05-24T09:25:19Z</time>
      </trkpt>
      <trkpt lat="48.86153" lon="1.40848">
        <ele>65</ele>
        <time>2011-05-24T09:25:32Z</time>
      </trkpt>
      <trkpt lat="48.86152" lon="1.40863">
        <ele>65</ele>
        <time>2011-05-24T09:25:42Z</time>
      </trkpt>
      <trkpt lat="48.86146" lon="1.40874">
        <ele>65</ele>
        <time>2011-05-24T09:25:50Z</time>
      </trkpt>
      <trkpt lat="48.86148" lon="1.40888">
        <ele>65</ele>
        <time>2011-05-24T09:26:00Z</time>
      </trkpt>
      <trkpt lat="48.86148" lon="1.40903">
        <ele>58</ele>
        <time>2011-05-24T09:26:10Z</time>
      </trkpt>
      <trkpt lat="48.86147" lon="1.40919">
        <ele>58</ele>
        <time>2011-05-24T09:26:18Z</time>
      </trkpt>
      <trkpt lat="48.86152" lon="1.40932">
        <ele>53</ele>
        <time>2011-05-24T09:26:27Z</time>
      </trkpt>
      <trkpt lat="48.86152" lon="1.40947">
        <ele>53</ele>
        <time>2011-05-24T09:26:37Z</time>
      </trkpt>
      <trkpt lat="48.86155" lon="1.40961">
        <ele>53</ele>
        <time>2011-05-24T09:26:43Z</time>
      </trkpt>
      <trkpt lat="48.86155" lon="1.40977">
        <ele>59</ele>
        <time>2011-05-24T09:26:51Z</time>
      </trkpt>
      <trkpt lat="48.86151" lon="1.40992">
        <ele>59</ele>
        <time>2011-05-24T09:27:00Z</time>
      </trkpt>
      <trkpt lat="48.86151" lon="1.41007">
        <ele>59</ele>
        <time>2011-05-24T09:27:09Z</time>
      </trkpt>
      <trkpt lat="48.86148" lon="1.4102">
        <ele>59</ele>
        <time>2011-05-24T09:27:19Z</time>
      </trkpt>
      <trkpt lat="48.86142" lon="1.41032">
        <ele>59</ele>
        <time>2011-05-24T09:27:25Z</time>
      </trkpt>
      <trkpt lat="48.86141" lon="1.41046">
        <ele>59</ele>
        <time>2011-05-24T09:27:35Z</time>
      </trkpt>
      <trkpt lat="48.86139" lon="1.41061">
        <ele>59</ele>
        <time>2011-05-24T09:27:46Z</time>
      </trkpt>
      <trkpt lat="48.86139" lon="1.41076">
        <ele>59</ele>
        <time>2011-05-24T09:27:58Z</time>
      </trkpt>
      <trkpt lat="48.86142" lon="1.41089">
        <ele>59</ele>
        <time>2011-05-24T09:28:10Z</time>
      </trkpt>
      <trkpt lat="48.86139" lon="1.41103">
        <ele>59</ele>
        <time>2011-05-24T09:28:17Z</time>
      </trkpt>
      <trkpt lat="48.86141" lon="1.41118">
        <ele>59</ele>
        <time>2011-05-24T09:28:29Z</time>
      </trkpt>
      <trkpt lat="48.86139" lon="1.41135">
        <ele>59</ele>
        <time>2011-05-24T09:28:32Z</time>
      </trkpt>
      <trkpt lat="48.86142" lon="1.4115">
        <ele>59</ele>
        <time>2011-05-24T09:28:41Z</time>
      </trkpt>
      <trkpt lat="48.86137" lon="1.41164">
        <ele>59</ele>
        <time>2011-05-24T09:28:46Z</time>
      </trkpt>
      <trkpt lat="48.86137" lon="1.41178">
        <ele>59</ele>
        <time>2011-05-24T09:28:55Z</time>
      </trkpt>
      <trkpt lat="48.86135" lon="1.41192">
        <ele>59</ele>
        <time>2011-05-24T09:29:06Z</time>
      </trkpt>
      <trkpt lat="48.86135" lon="1.41206">
        <ele>59</ele>
        <time>2011-05-24T09:29:10Z</time>
      </trkpt>
      <trkpt lat="48.86138" lon="1.4122">
        <ele>59</ele>
        <time>2011-05-24T09:29:21Z</time>
      </trkpt>
      <trkpt lat="48.86136" lon="1.41234">
        <ele>65</ele>
        <time>2011-05-24T09:29:28Z</time>
      </trkpt>
      <trkpt lat="48.86136" lon="1.41248">
        <ele>65</ele>
        <time>2011-05-24T09:29:35Z</time>
      </trkpt>
      <trkpt lat="48.8614" lon="1.41262">
        <ele>59</ele>
        <time>2011-05-24T09:29:47Z</time>
      </trkpt>
      <trkpt lat="48.86137" lon="1.41277">
        <ele>59</ele>
        <time>2011-05-24T09:29:55Z</time>
      </trkpt>
      <trkpt lat="48.86133" lon="1.41292">
        <ele>59</ele>
        <time>2011-05-24T09:30:00Z</time>
      </trkpt>
      <trkpt lat="48.86137" lon="1.41306">
        <ele>59</ele>
        <time>2011-05-24T09:30:09Z</time>
      </trkpt>
      <trkpt lat="48.8614" lon="1.41322">
        <ele>59</ele>
        <time>2011-05-24T09:30:20Z</time>
      </trkpt>
      <trkpt lat="48.86148" lon="1.41339">
        <ele>59</ele>
        <time>2011-05-24T09:30:30Z</time>
      </trkpt>
      <trkpt lat="48.86148" lon="1.41354">
        <ele>59</ele>
        <time>2011-05-24T09:30:39Z</time>
      </trkpt>
      <trkpt lat="48.86146" lon="1.41369">
        <ele>65</ele>
        <time>2011-05-24T09:30:47Z</time>
      </trkpt>
      <trkpt lat="48.8615" lon="1.41382">
        <ele>65</ele>
        <time>2011-05-24T09:30:54Z</time>
      </trkpt>
      <trkpt lat="48.8615" lon="1.41397">
        <ele>65</ele>
        <time>2011-05-24T09:31:03Z</time>
      </trkpt>
      <trkpt lat="48.86149" lon="1.41411">
        <ele>56</ele>
        <time>2011-05-24T09:31:13Z</time>
      </trkpt>
      <trkpt lat="48.86152" lon="1.41426">
        <ele>56</ele>
        <time>2011-05-24T09:31:20Z</time>
      </trkpt>
      <trkpt lat="48.86155" lon="1.41442">
        <ele>48</ele>
        <time>2011-05-24T09:31:32Z</time>
      </trkpt>
      <trkpt lat="48.86159" lon="1.41456">
        <ele>48</ele>
        <time>2011-05-24T09:31:45Z</time>
      </trkpt>
      <trkpt lat="48.86168" lon="1.41465">
        <ele>56</ele>
        <time>2011-05-24T09:31:53Z</time>
      </trkpt>
      <trkpt lat="48.86172" lon="1.41479">
        <ele>56</ele>
        <time>2011-05-24T09:31:59Z</time>
      </trkpt>
      <trkpt lat="48.86171" lon="1.41495">
        <ele>56</ele>
        <time>2011-05-24T09:32:07Z</time>
      </trkpt>
      <trkpt lat="48.86171" lon="1.41512">
        <ele>56</ele>
        <time>2011-05-24T09:32:16Z</time>
      </trkpt>
      <trkpt lat="48.86174" lon="1.41525">
        <ele>56</ele>
        <time>2011-05-24T09:32:25Z</time>
      </trkpt>
      <trkpt lat="48.86174" lon="1.4154">
        <ele>56</ele>
        <time>2011-05-24T09:32:34Z</time>
      </trkpt>
      <trkpt lat="48.86173" lon="1.41559">
        <ele>56</ele>
        <time>2011-05-24T09:32:47Z</time>
      </trkpt>
      <trkpt lat="48.86171" lon="1.41575">
        <ele>56</ele>
        <time>2011-05-24T09:32:57Z</time>
      </trkpt>
      <trkpt lat="48.86177" lon="1.41588">
        <ele>56</ele>
        <time>2011-05-24T09:33:04Z</time>
      </trkpt>
      <trkpt lat="48.8618" lon="1.41601">
        <ele>49</ele>
        <time>2011-05-24T09:33:13Z</time>
      </trkpt>
      <trkpt lat="48.86187" lon="1.41612">
        <ele>49</ele>
        <time>2011-05-24T09:33:21Z</time>
      </trkpt>
      <trkpt lat="48.86192" lon="1.41628">
        <ele>49</ele>
        <time>2011-05-24T09:33:36Z</time>
      </trkpt>
      <trkpt lat="48.86197" lon="1.41641">
        <ele>49</ele>
        <time>2011-05-24T09:33:47Z</time>
      </trkpt>
      <trkpt lat="48.86193" lon="1.41668">
        <ele>49</ele>
        <time>2011-05-24T09:33:56Z</time>
      </trkpt>
      <trkpt lat="48.86198" lon="1.41683">
        <ele>55</ele>
        <time>2011-05-24T09:34:04Z</time>
      </trkpt>
      <trkpt lat="48.86201" lon="1.41697">
        <ele>55</ele>
        <time>2011-05-24T09:34:16Z</time>
      </trkpt>
      <trkpt lat="48.86207" lon="1.41708">
        <ele>55</ele>
        <time>2011-05-24T09:34:27Z</time>
      </trkpt>
      <trkpt lat="48.86212" lon="1.41721">
        <ele>62</ele>
        <time>2011-05-24T09:34:40Z</time>
      </trkpt>
      <trkpt lat="48.86203" lon="1.41728">
        <ele>62</ele>
        <time>2011-05-24T09:35:25Z</time>
      </trkpt>
      <trkpt lat="48.86213" lon="1.41728">
        <ele>68</ele>
        <time>2011-05-24T09:35:46Z</time>
      </trkpt>
      <trkpt lat="48.86205" lon="1.41736">
        <ele>68</ele>
        <time>2011-05-24T09:35:58Z</time>
      </trkpt>
      <trkpt lat="48.862" lon="1.41724">
        <ele>55</ele>
        <time>2011-05-24T09:36:33Z</time>
      </trkpt>
      <trkpt lat="48.86209" lon="1.41727">
        <ele>62</ele>
        <time>2011-05-24T09:38:42Z</time>
      </trkpt>
      <trkpt lat="48.86206" lon="1.41741">
        <ele>62</ele>
        <time>2011-05-24T09:39:05Z</time>
      </trkpt>
      <trkpt lat="48.86207" lon="1.41726">
        <ele>62</ele>
        <time>2011-05-24T09:40:05Z</time>
      </trkpt>
      <trkpt lat="48.86199" lon="1.41716">
        <ele>75</ele>
        <time>2011-05-24T09:40:48Z</time>
      </trkpt>
      <trkpt lat="48.86207" lon="1.41724">
        <ele>75</ele>
        <time>2011-05-24T09:41:08Z</time>
      </trkpt>
      <trkpt lat="48.86215" lon="1.41733">
        <ele>60</ele>
        <time>2011-05-24T09:41:28Z</time>
      </trkpt>
      <trkpt lat="48.86205" lon="1.41731">
        <ele>60</ele>
        <time>2011-05-24T09:42:15Z</time>
      </trkpt>
      <trkpt lat="48.86198" lon="1.41721">
        <ele>69</ele>
        <time>2011-05-24T09:42:29Z</time>
      </trkpt>
      <trkpt lat="48.86206" lon="1.41728">
        <ele>69</ele>
        <time>2011-05-24T09:43:01Z</time>
      </trkpt>
      <trkpt lat="48.86211" lon="1.41741">
        <ele>53</ele>
        <time>2011-05-24T09:44:58Z</time>
      </trkpt>
      <trkpt lat="48.86212" lon="1.41756">
        <ele>53</ele>
        <time>2011-05-24T09:45:09Z</time>
      </trkpt>
      <trkpt lat="48.86207" lon="1.4177">
        <ele>53</ele>
        <time>2011-05-24T09:45:16Z</time>
      </trkpt>
      <trkpt lat="48.86209" lon="1.41785">
        <ele>53</ele>
        <time>2011-05-24T09:45:25Z</time>
      </trkpt>
      <trkpt lat="48.86209" lon="1.418">
        <ele>53</ele>
        <time>2011-05-24T09:45:36Z</time>
      </trkpt>
      <trkpt lat="48.86207" lon="1.41815">
        <ele>59</ele>
        <time>2011-05-24T09:45:44Z</time>
      </trkpt>
      <trkpt lat="48.86203" lon="1.4183">
        <ele>59</ele>
        <time>2011-05-24T09:45:51Z</time>
      </trkpt>
      <trkpt lat="48.86201" lon="1.41843">
        <ele>59</ele>
        <time>2011-05-24T09:45:58Z</time>
      </trkpt>
      <trkpt lat="48.86203" lon="1.41857">
        <ele>59</ele>
        <time>2011-05-24T09:46:06Z</time>
      </trkpt>
      <trkpt lat="48.86201" lon="1.41871">
        <ele>59</ele>
        <time>2011-05-24T09:46:12Z</time>
      </trkpt>
      <trkpt lat="48.86202" lon="1.41885">
        <ele>59</ele>
        <time>2011-05-24T09:46:24Z</time>
      </trkpt>
      <trkpt lat="48.86197" lon="1.41905">
        <ele>53</ele>
        <time>2011-05-24T09:46:33Z</time>
      </trkpt>
      <trkpt lat="48.86201" lon="1.41918">
        <ele>53</ele>
        <time>2011-05-24T09:46:40Z</time>
      </trkpt>
      <trkpt lat="48.86202" lon="1.41933">
        <ele>53</ele>
        <time>2011-05-24T09:46:50Z</time>
      </trkpt>
      <trkpt lat="48.86202" lon="1.41949">
        <ele>53</ele>
        <time>2011-05-24T09:46:59Z</time>
      </trkpt>
      <trkpt lat="48.86207" lon="1.41962">
        <ele>53</ele>
        <time>2011-05-24T09:47:08Z</time>
      </trkpt>
      <trkpt lat="48.86209" lon="1.41977">
        <ele>53</ele>
        <time>2011-05-24T09:47:15Z</time>
      </trkpt>
      <trkpt lat="48.86206" lon="1.41994">
        <ele>53</ele>
        <time>2011-05-24T09:47:24Z</time>
      </trkpt>
      <trkpt lat="48.86213" lon="1.42003">
        <ele>53</ele>
        <time>2011-05-24T09:47:37Z</time>
      </trkpt>
      <trkpt lat="48.86213" lon="1.42017">
        <ele>53</ele>
        <time>2011-05-24T09:47:47Z</time>
      </trkpt>
      <trkpt lat="48.86213" lon="1.42032">
        <ele>53</ele>
        <time>2011-05-24T09:47:55Z</time>
      </trkpt>
      <trkpt lat="48.86218" lon="1.42046">
        <ele>53</ele>
        <time>2011-05-24T09:48:04Z</time>
      </trkpt>
      <trkpt lat="48.8622" lon="1.4206">
        <ele>53</ele>
        <time>2011-05-24T09:48:12Z</time>
      </trkpt>
      <trkpt lat="48.86219" lon="1.42075">
        <ele>53</ele>
        <time>2011-05-24T09:48:19Z</time>
      </trkpt>
      <trkpt lat="48.86228" lon="1.42082">
        <ele>53</ele>
        <time>2011-05-24T09:48:31Z</time>
      </trkpt>
      <trkpt lat="48.86238" lon="1.42082">
        <ele>53</ele>
        <time>2011-05-24T09:48:38Z</time>
      </trkpt>
      <trkpt lat="48.86241" lon="1.42096">
        <ele>53</ele>
        <time>2011-05-24T09:48:48Z</time>
      </trkpt>
      <trkpt lat="48.86249" lon="1.42103">
        <ele>53</ele>
        <time>2011-05-24T09:48:59Z</time>
      </trkpt>
      <trkpt lat="48.86258" lon="1.42102">
        <ele>53</ele>
        <time>2011-05-24T09:49:08Z</time>
      </trkpt>
      <trkpt lat="48.86267" lon="1.42096">
        <ele>60</ele>
        <time>2011-05-24T09:49:16Z</time>
      </trkpt>
      <trkpt lat="48.86277" lon="1.42095">
        <ele>60</ele>
        <time>2011-05-24T09:49:24Z</time>
      </trkpt>
      <trkpt lat="48.86286" lon="1.42086">
        <ele>55</ele>
        <time>2011-05-24T09:49:35Z</time>
      </trkpt>
      <trkpt lat="48.86295" lon="1.4208">
        <ele>55</ele>
        <time>2011-05-24T09:49:45Z</time>
      </trkpt>
      <trkpt lat="48.86304" lon="1.42078">
        <ele>65</ele>
        <time>2011-05-24T09:49:51Z</time>
      </trkpt>
      <trkpt lat="48.86314" lon="1.42076">
        <ele>65</ele>
        <time>2011-05-24T09:49:59Z</time>
      </trkpt>
      <trkpt lat="48.86322" lon="1.4207">
        <ele>57</ele>
        <time>2011-05-24T09:50:09Z</time>
      </trkpt>
      <trkpt lat="48.86332" lon="1.42068">
        <ele>57</ele>
        <time>2011-05-24T09:50:19Z</time>
      </trkpt>
      <trkpt lat="48.8634" lon="1.42061">
        <ele>57</ele>
        <time>2011-05-24T09:50:28Z</time>
      </trkpt>
      <trkpt lat="48.86349" lon="1.42052">
        <ele>57</ele>
        <time>2011-05-24T09:50:37Z</time>
      </trkpt>
      <trkpt lat="48.86353" lon="1.42039">
        <ele>57</ele>
        <time>2011-05-24T09:50:46Z</time>
      </trkpt>
      <trkpt lat="48.86353" lon="1.42025">
        <ele>57</ele>
        <time>2011-05-24T09:50:55Z</time>
      </trkpt>
      <trkpt lat="48.86347" lon="1.42009">
        <ele>57</ele>
        <time>2011-05-24T09:51:06Z</time>
      </trkpt>
      <trkpt lat="48.86346" lon="1.41995">
        <ele>52</ele>
        <time>2011-05-24T09:51:15Z</time>
      </trkpt>
      <trkpt lat="48.86344" lon="1.4198">
        <ele>52</ele>
        <time>2011-05-24T09:51:24Z</time>
      </trkpt>
      <trkpt lat="48.86353" lon="1.41972">
        <ele>52</ele>
        <time>2011-05-24T09:51:38Z</time>
      </trkpt>
      <trkpt lat="48.86362" lon="1.41965">
        <ele>52</ele>
        <time>2011-05-24T09:51:46Z</time>
      </trkpt>
      <trkpt lat="48.86372" lon="1.41962">
        <ele>52</ele>
        <time>2011-05-24T09:51:53Z</time>
      </trkpt>
      <trkpt lat="48.86381" lon="1.41956">
        <ele>52</ele>
        <time>2011-05-24T09:52:03Z</time>
      </trkpt>
      <trkpt lat="48.86389" lon="1.4195">
        <ele>52</ele>
        <time>2011-05-24T09:52:13Z</time>
      </trkpt>
      <trkpt lat="48.864" lon="1.41948">
        <ele>52</ele>
        <time>2011-05-24T09:52:21Z</time>
      </trkpt>
      <trkpt lat="48.86409" lon="1.41942">
        <ele>52</ele>
        <time>2011-05-24T09:52:30Z</time>
      </trkpt>
      <trkpt lat="48.86417" lon="1.41934">
        <ele>63</ele>
        <time>2011-05-24T09:52:40Z</time>
      </trkpt>
      <trkpt lat="48.86425" lon="1.41925">
        <ele>63</ele>
        <time>2011-05-24T09:53:08Z</time>
      </trkpt>
      <trkpt lat="48.86434" lon="1.4192">
        <ele>63</ele>
        <time>2011-05-24T09:53:18Z</time>
      </trkpt>
      <trkpt lat="48.86443" lon="1.41914">
        <ele>63</ele>
        <time>2011-05-24T09:53:31Z</time>
      </trkpt>
      <trkpt lat="48.86449" lon="1.41925">
        <ele>57</ele>
        <time>2011-05-24T09:54:12Z</time>
      </trkpt>
      <trkpt lat="48.86457" lon="1.41934">
        <ele>57</ele>
        <time>2011-05-24T09:54:35Z</time>
      </trkpt>
      <trkpt lat="48.86461" lon="1.41946">
        <ele>57</ele>
        <time>2011-05-24T09:54:43Z</time>
      </trkpt>
      <trkpt lat="48.86465" lon="1.4196">
        <ele>57</ele>
        <time>2011-05-24T09:54:51Z</time>
      </trkpt>
      <trkpt lat="48.8647" lon="1.41972">
        <ele>57</ele>
        <time>2011-05-24T09:55:04Z</time>
      </trkpt>
      <trkpt lat="48.86477" lon="1.41982">
        <ele>57</ele>
        <time>2011-05-24T09:55:23Z</time>
      </trkpt>
      <trkpt lat="48.86487" lon="1.41978">
        <ele>57</ele>
        <time>2011-05-24T09:55:45Z</time>
      </trkpt>
      <trkpt lat="48.86496" lon="1.41972">
        <ele>57</ele>
        <time>2011-05-24T09:55:56Z</time>
      </trkpt>
      <trkpt lat="48.86506" lon="1.41965">
        <ele>57</ele>
        <time>2011-05-24T09:56:03Z</time>
      </trkpt>
      <trkpt lat="48.86514" lon="1.41962">
        <ele>57</ele>
        <time>2011-05-24T09:56:09Z</time>
      </trkpt>
      <trkpt lat="48.86523" lon="1.41969">
        <ele>57</ele>
        <time>2011-05-24T09:56:19Z</time>
      </trkpt>
      <trkpt lat="48.86533" lon="1.41972">
        <ele>57</ele>
        <time>2011-05-24T09:56:25Z</time>
      </trkpt>
      <trkpt lat="48.86544" lon="1.41977">
        <ele>57</ele>
        <time>2011-05-24T09:56:32Z</time>
      </trkpt>
      <trkpt lat="48.86554" lon="1.41981">
        <ele>57</ele>
        <time>2011-05-24T09:56:39Z</time>
      </trkpt>
      <trkpt lat="48.86561" lon="1.41991">
        <ele>57</ele>
        <time>2011-05-24T09:56:45Z</time>
      </trkpt>
      <trkpt lat="48.8657" lon="1.41996">
        <ele>57</ele>
        <time>2011-05-24T09:56:55Z</time>
      </trkpt>
      <trkpt lat="48.86569" lon="1.42011">
        <ele>57</ele>
        <time>2011-05-24T09:57:13Z</time>
      </trkpt>
      <trkpt lat="48.86571" lon="1.42026">
        <ele>57</ele>
        <time>2011-05-24T09:57:21Z</time>
      </trkpt>
      <trkpt lat="48.86573" lon="1.42042">
        <ele>57</ele>
        <time>2011-05-24T09:57:29Z</time>
      </trkpt>
      <trkpt lat="48.86576" lon="1.42055">
        <ele>51</ele>
        <time>2011-05-24T09:57:35Z</time>
      </trkpt>
      <trkpt lat="48.86575" lon="1.4207">
        <ele>51</ele>
        <time>2011-05-24T09:57:41Z</time>
      </trkpt>
      <trkpt lat="48.86578" lon="1.42084">
        <ele>51</ele>
        <time>2011-05-24T09:57:48Z</time>
      </trkpt>
      <trkpt lat="48.86581" lon="1.42097">
        <ele>51</ele>
        <time>2011-05-24T09:57:54Z</time>
      </trkpt>
      <trkpt lat="48.86585" lon="1.4211">
        <ele>51</ele>
        <time>2011-05-24T09:58:00Z</time>
      </trkpt>
      <trkpt lat="48.86581" lon="1.42123">
        <ele>59</ele>
        <time>2011-05-24T09:58:09Z</time>
      </trkpt>
      <trkpt lat="48.86573" lon="1.42131">
        <ele>59</ele>
        <time>2011-05-24T09:58:17Z</time>
      </trkpt>
      <trkpt lat="48.86566" lon="1.42142">
        <ele>59</ele>
        <time>2011-05-24T09:58:23Z</time>
      </trkpt>
      <trkpt lat="48.86558" lon="1.42151">
        <ele>59</ele>
        <time>2011-05-24T09:58:30Z</time>
      </trkpt>
      <trkpt lat="48.86549" lon="1.42158">
        <ele>59</ele>
        <time>2011-05-24T09:58:36Z</time>
      </trkpt>
      <trkpt lat="48.8654" lon="1.42162">
        <ele>59</ele>
        <time>2011-05-24T09:58:42Z</time>
      </trkpt>
      <trkpt lat="48.86532" lon="1.4217">
        <ele>54</ele>
        <time>2011-05-24T09:58:49Z</time>
      </trkpt>
      <trkpt lat="48.86529" lon="1.42184">
        <ele>54</ele>
        <time>2011-05-24T09:58:54Z</time>
      </trkpt>
      <trkpt lat="48.8653" lon="1.42199">
        <ele>54</ele>
        <time>2011-05-24T09:59:00Z</time>
      </trkpt>
      <trkpt lat="48.86533" lon="1.42214">
        <ele>54</ele>
        <time>2011-05-24T09:59:07Z</time>
      </trkpt>
      <trkpt lat="48.86535" lon="1.42229">
        <ele>54</ele>
        <time>2011-05-24T09:59:14Z</time>
      </trkpt>
      <trkpt lat="48.86534" lon="1.42244">
        <ele>54</ele>
        <time>2011-05-24T09:59:20Z</time>
      </trkpt>
      <trkpt lat="48.8653" lon="1.42256">
        <ele>61</ele>
        <time>2011-05-24T09:59:30Z</time>
      </trkpt>
      <trkpt lat="48.86522" lon="1.42266">
        <ele>61</ele>
        <time>2011-05-24T09:59:37Z</time>
      </trkpt>
      <trkpt lat="48.86513" lon="1.42273">
        <ele>61</ele>
        <time>2011-05-24T09:59:45Z</time>
      </trkpt>
      <trkpt lat="48.86503" lon="1.42281">
        <ele>61</ele>
        <time>2011-05-24T09:59:51Z</time>
      </trkpt>
      <trkpt lat="48.86494" lon="1.42287">
        <ele>61</ele>
        <time>2011-05-24T09:59:58Z</time>
      </trkpt>
      <trkpt lat="48.86485" lon="1.42291">
        <ele>61</ele>
        <time>2011-05-24T10:00:05Z</time>
      </trkpt>
      <trkpt lat="48.86475" lon="1.42298">
        <ele>56</ele>
        <time>2011-05-24T10:00:14Z</time>
      </trkpt>
      <trkpt lat="48.86465" lon="1.42305">
        <ele>56</ele>
        <time>2011-05-24T10:00:21Z</time>
      </trkpt>
      <trkpt lat="48.86456" lon="1.42313">
        <ele>56</ele>
        <time>2011-05-24T10:00:26Z</time>
      </trkpt>
      <trkpt lat="48.86448" lon="1.42321">
        <ele>56</ele>
        <time>2011-05-24T10:00:31Z</time>
      </trkpt>
      <trkpt lat="48.86439" lon="1.42326">
        <ele>56</ele>
        <time>2011-05-24T10:00:36Z</time>
      </trkpt>
      <trkpt lat="48.8643" lon="1.42332">
        <ele>51</ele>
        <time>2011-05-24T10:00:41Z</time>
      </trkpt>
      <trkpt lat="48.8642" lon="1.42336">
        <ele>51</ele>
        <time>2011-05-24T10:00:53Z</time>
      </trkpt>
      <trkpt lat="48.86411" lon="1.42324">
        <ele>43</ele>
        <time>2011-05-24T10:01:19Z</time>
      </trkpt>
      <trkpt lat="48.86398" lon="1.42337">
        <ele>43</ele>
        <time>2011-05-24T10:01:35Z</time>
      </trkpt>
      <trkpt lat="48.86387" lon="1.42339">
        <ele>43</ele>
        <time>2011-05-24T10:01:38Z</time>
      </trkpt>
    </trkseg>
  </trk>
</gpx>